<?xml version="1.0" encoding="UTF-8" standalone="no" ?>
<gpx xmlns="http://www.topografix.com/GPX/1/1" xmlns:xsi="http://www.w3.org/2001/XMLSchema-instance" xsi:schemaLocation="http://www.topografix.com/GPX/1/1 http://www.topografix.com/GPX/1/1/gpx.xsd" version="1.1" creator="VisuGPX - https://www.visugpx.com">
  <metadata>
    <name>pic de lauzate</name>
    <desc><![CDATA[la trace de cette rando, part au parking, du barrage de laparan vallée  de l'Aston 09 Ariège, jusqu'au Refuge du rulhe;( Refuge gardé ). elle comporte quelques passages hors sentier, sans difficulté technique, elle s'adresse dont a de bons marcheurs.
le retour se fera par la voie dite (normale), qui monte et descend, au parking du plat de las peyres, ou l'on aura laisse une voiture pour rejoindre plus bas,( 3KM ) le parking de laparan; (toutefois le chemin peux se faire a pied.)
pour rejoindre le départ,: de Foix prendre la route des Cabannes, puis le village d'Aston,et continuer jusqu'au barrage.  Bonne Rando 
  ]]></desc>
  </metadata>
  <trk>
    <name><![CDATA[pic de lauzate_1]]></name>
    <trkseg>
      <trkpt lat="42.6728" lon="1.70856">
        <ele>1450.226929</ele>
        <time>2018-08-19T06:19:35Z</time>
      </trkpt>
      <trkpt lat="42.6728" lon="1.70856">
        <ele>1450.244507</ele>
        <time>2018-08-19T06:19:36Z</time>
      </trkpt>
      <trkpt lat="42.67271" lon="1.70858">
        <ele>1574.325439</ele>
        <time>2018-08-19T06:23:55Z</time>
      </trkpt>
      <trkpt lat="42.67281" lon="1.70856">
        <ele>1574</ele>
        <time>2018-08-19T06:24:06Z</time>
      </trkpt>
      <trkpt lat="42.6729" lon="1.70857">
        <ele>1578.099976</ele>
        <time>2018-08-19T06:24:15Z</time>
      </trkpt>
      <trkpt lat="42.67299" lon="1.7086">
        <ele>1585.5</ele>
        <time>2018-08-19T06:24:27Z</time>
      </trkpt>
      <trkpt lat="42.67308" lon="1.70864">
        <ele>1590.699951</ele>
        <time>2018-08-19T06:24:38Z</time>
      </trkpt>
      <trkpt lat="42.67317" lon="1.70867">
        <ele>1597.699951</ele>
        <time>2018-08-19T06:24:50Z</time>
      </trkpt>
      <trkpt lat="42.67324" lon="1.70876">
        <ele>1605.900024</ele>
        <time>2018-08-19T06:25:14Z</time>
      </trkpt>
      <trkpt lat="42.67321" lon="1.70888">
        <ele>1612.300049</ele>
        <time>2018-08-19T06:25:29Z</time>
      </trkpt>
      <trkpt lat="42.67317" lon="1.70903">
        <ele>1614.800049</ele>
        <time>2018-08-19T06:26:10Z</time>
      </trkpt>
      <trkpt lat="42.67326" lon="1.70906">
        <ele>1624.5</ele>
        <time>2018-08-19T06:26:25Z</time>
      </trkpt>
      <trkpt lat="42.67336" lon="1.7091">
        <ele>1630.900024</ele>
        <time>2018-08-19T06:26:36Z</time>
      </trkpt>
      <trkpt lat="42.67331" lon="1.70921">
        <ele>1636.300049</ele>
        <time>2018-08-19T06:27:01Z</time>
      </trkpt>
      <trkpt lat="42.67322" lon="1.70922">
        <ele>1633.800049</ele>
        <time>2018-08-19T06:27:15Z</time>
      </trkpt>
      <trkpt lat="42.67313" lon="1.70936">
        <ele>1636.5</ele>
        <time>2018-08-19T06:27:52Z</time>
      </trkpt>
      <trkpt lat="42.67306" lon="1.7095">
        <ele>1639.199951</ele>
        <time>2018-08-19T06:28:31Z</time>
      </trkpt>
      <trkpt lat="42.67307" lon="1.70962">
        <ele>1647.900024</ele>
        <time>2018-08-19T06:29:11Z</time>
      </trkpt>
      <trkpt lat="42.67298" lon="1.70966">
        <ele>1648.199951</ele>
        <time>2018-08-19T06:29:23Z</time>
      </trkpt>
      <trkpt lat="42.67289" lon="1.70971">
        <ele>1647.099976</ele>
        <time>2018-08-19T06:29:34Z</time>
      </trkpt>
      <trkpt lat="42.67295" lon="1.7098">
        <ele>1652.900024</ele>
        <time>2018-08-19T06:30:01Z</time>
      </trkpt>
      <trkpt lat="42.67294" lon="1.70992">
        <ele>1659.300049</ele>
        <time>2018-08-19T06:30:12Z</time>
      </trkpt>
      <trkpt lat="42.67295" lon="1.71005">
        <ele>1665.900024</ele>
        <time>2018-08-19T06:30:21Z</time>
      </trkpt>
      <trkpt lat="42.67286" lon="1.70997">
        <ele>1662.699951</ele>
        <time>2018-08-19T06:30:52Z</time>
      </trkpt>
      <trkpt lat="42.67279" lon="1.71006">
        <ele>1660.800049</ele>
        <time>2018-08-19T06:31:05Z</time>
      </trkpt>
      <trkpt lat="42.6727" lon="1.7101">
        <ele>1659</ele>
        <time>2018-08-19T06:31:22Z</time>
      </trkpt>
      <trkpt lat="42.6728" lon="1.71045">
        <ele>1672</ele>
        <time>2018-08-19T06:32:58Z</time>
      </trkpt>
      <trkpt lat="42.67291" lon="1.71059">
        <ele>1685</ele>
        <time>2018-08-19T06:33:27Z</time>
      </trkpt>
      <trkpt lat="42.67301" lon="1.71058">
        <ele>1690.400024</ele>
        <time>2018-08-19T06:33:45Z</time>
      </trkpt>
      <trkpt lat="42.67305" lon="1.71072">
        <ele>1697.199951</ele>
        <time>2018-08-19T06:34:35Z</time>
      </trkpt>
      <trkpt lat="42.673" lon="1.7109">
        <ele>1700.800049</ele>
        <time>2018-08-19T06:35:17Z</time>
      </trkpt>
      <trkpt lat="42.67307" lon="1.71112">
        <ele>1713</ele>
        <time>2018-08-19T06:36:26Z</time>
      </trkpt>
      <trkpt lat="42.67318" lon="1.711">
        <ele>1718.099976</ele>
        <time>2018-08-19T06:36:50Z</time>
      </trkpt>
      <trkpt lat="42.67313" lon="1.71112">
        <ele>1721</ele>
        <time>2018-08-19T06:37:43Z</time>
      </trkpt>
      <trkpt lat="42.67309" lon="1.71133">
        <ele>1727.400024</ele>
        <time>2018-08-19T06:38:33Z</time>
      </trkpt>
      <trkpt lat="42.67312" lon="1.71149">
        <ele>1736.800049</ele>
        <time>2018-08-19T06:39:03Z</time>
      </trkpt>
      <trkpt lat="42.67314" lon="1.71166">
        <ele>1744</ele>
        <time>2018-08-19T06:39:19Z</time>
      </trkpt>
      <trkpt lat="42.67318" lon="1.7119">
        <ele>1759</ele>
        <time>2018-08-19T06:40:36Z</time>
      </trkpt>
      <trkpt lat="42.67317" lon="1.7121">
        <ele>1766.900024</ele>
        <time>2018-08-19T06:41:26Z</time>
      </trkpt>
      <trkpt lat="42.67318" lon="1.71223">
        <ele>1772.699951</ele>
        <time>2018-08-19T06:41:39Z</time>
      </trkpt>
      <trkpt lat="42.67315" lon="1.71236">
        <ele>1776.099976</ele>
        <time>2018-08-19T06:41:56Z</time>
      </trkpt>
      <trkpt lat="42.67311" lon="1.71248">
        <ele>1778.300049</ele>
        <time>2018-08-19T06:42:01Z</time>
      </trkpt>
      <trkpt lat="42.67304" lon="1.71258">
        <ele>1778.099976</ele>
        <time>2018-08-19T06:42:32Z</time>
      </trkpt>
      <trkpt lat="42.67309" lon="1.71269">
        <ele>1782.599976</ele>
        <time>2018-08-19T06:43:50Z</time>
      </trkpt>
      <trkpt lat="42.67313" lon="1.7128">
        <ele>1788.300049</ele>
        <time>2018-08-19T06:45:04Z</time>
      </trkpt>
      <trkpt lat="42.67309" lon="1.71292">
        <ele>1789.900024</ele>
        <time>2018-08-19T06:45:18Z</time>
      </trkpt>
      <trkpt lat="42.67309" lon="1.71305">
        <ele>1792.099976</ele>
        <time>2018-08-19T06:45:32Z</time>
      </trkpt>
      <trkpt lat="42.67311" lon="1.71318">
        <ele>1797</ele>
        <time>2018-08-19T06:45:54Z</time>
      </trkpt>
      <trkpt lat="42.67304" lon="1.71327">
        <ele>1796.099976</ele>
        <time>2018-08-19T06:46:03Z</time>
      </trkpt>
      <trkpt lat="42.67301" lon="1.71339">
        <ele>1796.199951</ele>
        <time>2018-08-19T06:46:11Z</time>
      </trkpt>
      <trkpt lat="42.67308" lon="1.71349">
        <ele>1797.900024</ele>
        <time>2018-08-19T06:46:29Z</time>
      </trkpt>
      <trkpt lat="42.67312" lon="1.7136">
        <ele>1804.599976</ele>
        <time>2018-08-19T06:46:51Z</time>
      </trkpt>
      <trkpt lat="42.67314" lon="1.71372">
        <ele>1807.800049</ele>
        <time>2018-08-19T06:47:02Z</time>
      </trkpt>
      <trkpt lat="42.67314" lon="1.71385">
        <ele>1808.400024</ele>
        <time>2018-08-19T06:47:17Z</time>
      </trkpt>
      <trkpt lat="42.67312" lon="1.71398">
        <ele>1809.800049</ele>
        <time>2018-08-19T06:47:35Z</time>
      </trkpt>
      <trkpt lat="42.67314" lon="1.71411">
        <ele>1811</ele>
        <time>2018-08-19T06:47:46Z</time>
      </trkpt>
      <trkpt lat="42.67311" lon="1.71424">
        <ele>1811.900024</ele>
        <time>2018-08-19T06:48:00Z</time>
      </trkpt>
      <trkpt lat="42.67308" lon="1.71437">
        <ele>1812.199951</ele>
        <time>2018-08-19T06:48:14Z</time>
      </trkpt>
      <trkpt lat="42.67301" lon="1.71443">
        <ele>1808.5</ele>
        <time>2018-08-19T06:48:25Z</time>
      </trkpt>
      <trkpt lat="42.67292" lon="1.71448">
        <ele>1802.400024</ele>
        <time>2018-08-19T06:48:44Z</time>
      </trkpt>
      <trkpt lat="42.67282" lon="1.71455">
        <ele>1798</ele>
        <time>2018-08-19T06:48:52Z</time>
      </trkpt>
      <trkpt lat="42.67281" lon="1.71469">
        <ele>1795.400024</ele>
        <time>2018-08-19T06:49:19Z</time>
      </trkpt>
      <trkpt lat="42.67287" lon="1.71478">
        <ele>1799.099976</ele>
        <time>2018-08-19T06:49:26Z</time>
      </trkpt>
      <trkpt lat="42.67294" lon="1.71487">
        <ele>1805</ele>
        <time>2018-08-19T06:49:34Z</time>
      </trkpt>
      <trkpt lat="42.67301" lon="1.71495">
        <ele>1810.900024</ele>
        <time>2018-08-19T06:49:41Z</time>
      </trkpt>
      <trkpt lat="42.67309" lon="1.71502">
        <ele>1816.300049</ele>
        <time>2018-08-19T06:49:46Z</time>
      </trkpt>
      <trkpt lat="42.67316" lon="1.71511">
        <ele>1823</ele>
        <time>2018-08-19T06:49:51Z</time>
      </trkpt>
      <trkpt lat="42.67325" lon="1.71517">
        <ele>1829.800049</ele>
        <time>2018-08-19T06:49:57Z</time>
      </trkpt>
      <trkpt lat="42.67327" lon="1.7153">
        <ele>1833.900024</ele>
        <time>2018-08-19T06:50:05Z</time>
      </trkpt>
      <trkpt lat="42.67327" lon="1.71542">
        <ele>1834.5</ele>
        <time>2018-08-19T06:50:13Z</time>
      </trkpt>
      <trkpt lat="42.67324" lon="1.71554">
        <ele>1832.599976</ele>
        <time>2018-08-19T06:50:22Z</time>
      </trkpt>
      <trkpt lat="42.67333" lon="1.71561">
        <ele>1836.800049</ele>
        <time>2018-08-19T06:50:31Z</time>
      </trkpt>
      <trkpt lat="42.67338" lon="1.71571">
        <ele>1840.099976</ele>
        <time>2018-08-19T06:50:43Z</time>
      </trkpt>
      <trkpt lat="42.67336" lon="1.71584">
        <ele>1839.800049</ele>
        <time>2018-08-19T06:50:59Z</time>
      </trkpt>
      <trkpt lat="42.67339" lon="1.71599">
        <ele>1839.800049</ele>
        <time>2018-08-19T06:51:19Z</time>
      </trkpt>
      <trkpt lat="42.6734" lon="1.71612">
        <ele>1840.199951</ele>
        <time>2018-08-19T06:51:33Z</time>
      </trkpt>
      <trkpt lat="42.67345" lon="1.71623">
        <ele>1840.800049</ele>
        <time>2018-08-19T06:51:42Z</time>
      </trkpt>
      <trkpt lat="42.67353" lon="1.71629">
        <ele>1843.099976</ele>
        <time>2018-08-19T06:51:46Z</time>
      </trkpt>
      <trkpt lat="42.67362" lon="1.71635">
        <ele>1847.099976</ele>
        <time>2018-08-19T06:51:54Z</time>
      </trkpt>
      <trkpt lat="42.67367" lon="1.71645">
        <ele>1850.099976</ele>
        <time>2018-08-19T06:52:04Z</time>
      </trkpt>
      <trkpt lat="42.6736" lon="1.71653">
        <ele>1848.5</ele>
        <time>2018-08-19T06:52:15Z</time>
      </trkpt>
      <trkpt lat="42.67354" lon="1.71664">
        <ele>1846.599976</ele>
        <time>2018-08-19T06:52:26Z</time>
      </trkpt>
      <trkpt lat="42.67348" lon="1.71675">
        <ele>1844.199951</ele>
        <time>2018-08-19T06:52:48Z</time>
      </trkpt>
      <trkpt lat="42.67352" lon="1.71686">
        <ele>1847</ele>
        <time>2018-08-19T06:52:55Z</time>
      </trkpt>
      <trkpt lat="42.67346" lon="1.71696">
        <ele>1847.599976</ele>
        <time>2018-08-19T06:53:02Z</time>
      </trkpt>
      <trkpt lat="42.67346" lon="1.71708">
        <ele>1848</ele>
        <time>2018-08-19T06:53:11Z</time>
      </trkpt>
      <trkpt lat="42.67351" lon="1.71719">
        <ele>1852.199951</ele>
        <time>2018-08-19T06:53:22Z</time>
      </trkpt>
      <trkpt lat="42.67341" lon="1.71727">
        <ele>1851.800049</ele>
        <time>2018-08-19T06:53:31Z</time>
      </trkpt>
      <trkpt lat="42.67327" lon="1.71737">
        <ele>1845.900024</ele>
        <time>2018-08-19T06:53:37Z</time>
      </trkpt>
      <trkpt lat="42.6732" lon="1.71746">
        <ele>1839.699951</ele>
        <time>2018-08-19T06:53:42Z</time>
      </trkpt>
      <trkpt lat="42.67315" lon="1.71757">
        <ele>1835.5</ele>
        <time>2018-08-19T06:53:54Z</time>
      </trkpt>
      <trkpt lat="42.67311" lon="1.7177">
        <ele>1833.5</ele>
        <time>2018-08-19T06:54:07Z</time>
      </trkpt>
      <trkpt lat="42.67303" lon="1.71778">
        <ele>1829.199951</ele>
        <time>2018-08-19T06:54:15Z</time>
      </trkpt>
      <trkpt lat="42.67299" lon="1.7179">
        <ele>1825.800049</ele>
        <time>2018-08-19T06:54:28Z</time>
      </trkpt>
      <trkpt lat="42.67295" lon="1.71802">
        <ele>1823.400024</ele>
        <time>2018-08-19T06:54:39Z</time>
      </trkpt>
      <trkpt lat="42.67291" lon="1.71813">
        <ele>1821.300049</ele>
        <time>2018-08-19T06:54:48Z</time>
      </trkpt>
      <trkpt lat="42.67288" lon="1.71826">
        <ele>1819.699951</ele>
        <time>2018-08-19T06:54:59Z</time>
      </trkpt>
      <trkpt lat="42.67287" lon="1.71839">
        <ele>1819</ele>
        <time>2018-08-19T06:55:10Z</time>
      </trkpt>
      <trkpt lat="42.67283" lon="1.7185">
        <ele>1817.099976</ele>
        <time>2018-08-19T06:55:25Z</time>
      </trkpt>
      <trkpt lat="42.67278" lon="1.71862">
        <ele>1813</ele>
        <time>2018-08-19T06:55:35Z</time>
      </trkpt>
      <trkpt lat="42.67269" lon="1.71866">
        <ele>1807.300049</ele>
        <time>2018-08-19T06:55:43Z</time>
      </trkpt>
      <trkpt lat="42.67261" lon="1.71873">
        <ele>1799.400024</ele>
        <time>2018-08-19T06:56:01Z</time>
      </trkpt>
      <trkpt lat="42.67256" lon="1.71884">
        <ele>1796.800049</ele>
        <time>2018-08-19T06:56:12Z</time>
      </trkpt>
      <trkpt lat="42.67247" lon="1.71888">
        <ele>1791.199951</ele>
        <time>2018-08-19T06:56:27Z</time>
      </trkpt>
      <trkpt lat="42.6724" lon="1.71896">
        <ele>1787.300049</ele>
        <time>2018-08-19T06:56:42Z</time>
      </trkpt>
      <trkpt lat="42.67243" lon="1.71908">
        <ele>1788.699951</ele>
        <time>2018-08-19T06:57:03Z</time>
      </trkpt>
      <trkpt lat="42.67243" lon="1.71921">
        <ele>1789.800049</ele>
        <time>2018-08-19T06:57:13Z</time>
      </trkpt>
      <trkpt lat="42.67246" lon="1.71934">
        <ele>1791.699951</ele>
        <time>2018-08-19T06:57:24Z</time>
      </trkpt>
      <trkpt lat="42.67249" lon="1.71946">
        <ele>1793.800049</ele>
        <time>2018-08-19T06:57:39Z</time>
      </trkpt>
      <trkpt lat="42.67257" lon="1.71953">
        <ele>1798.800049</ele>
        <time>2018-08-19T06:57:53Z</time>
      </trkpt>
      <trkpt lat="42.67259" lon="1.71965">
        <ele>1802.099976</ele>
        <time>2018-08-19T06:58:12Z</time>
      </trkpt>
      <trkpt lat="42.6726" lon="1.71977">
        <ele>1802.699951</ele>
        <time>2018-08-19T06:58:30Z</time>
      </trkpt>
      <trkpt lat="42.67254" lon="1.71989">
        <ele>1800.599976</ele>
        <time>2018-08-19T06:58:46Z</time>
      </trkpt>
      <trkpt lat="42.67246" lon="1.71995">
        <ele>1797</ele>
        <time>2018-08-19T06:59:01Z</time>
      </trkpt>
      <trkpt lat="42.6724" lon="1.72005">
        <ele>1794.400024</ele>
        <time>2018-08-19T06:59:18Z</time>
      </trkpt>
      <trkpt lat="42.67238" lon="1.72023">
        <ele>1794.800049</ele>
        <time>2018-08-19T06:59:46Z</time>
      </trkpt>
      <trkpt lat="42.67237" lon="1.72036">
        <ele>1796.5</ele>
        <time>2018-08-19T07:00:04Z</time>
      </trkpt>
      <trkpt lat="42.67236" lon="1.72048">
        <ele>1797.199951</ele>
        <time>2018-08-19T07:00:15Z</time>
      </trkpt>
      <trkpt lat="42.6724" lon="1.72059">
        <ele>1799.900024</ele>
        <time>2018-08-19T07:00:27Z</time>
      </trkpt>
      <trkpt lat="42.67237" lon="1.72071">
        <ele>1800.900024</ele>
        <time>2018-08-19T07:00:43Z</time>
      </trkpt>
      <trkpt lat="42.67229" lon="1.72078">
        <ele>1799.099976</ele>
        <time>2018-08-19T07:00:55Z</time>
      </trkpt>
      <trkpt lat="42.67223" lon="1.72087">
        <ele>1797.199951</ele>
        <time>2018-08-19T07:01:12Z</time>
      </trkpt>
      <trkpt lat="42.67221" lon="1.721">
        <ele>1798.199951</ele>
        <time>2018-08-19T07:01:26Z</time>
      </trkpt>
      <trkpt lat="42.67218" lon="1.72112">
        <ele>1799.5</ele>
        <time>2018-08-19T07:01:45Z</time>
      </trkpt>
      <trkpt lat="42.67215" lon="1.72123">
        <ele>1800.099976</ele>
        <time>2018-08-19T07:02:04Z</time>
      </trkpt>
      <trkpt lat="42.67216" lon="1.72136">
        <ele>1801.900024</ele>
        <time>2018-08-19T07:02:17Z</time>
      </trkpt>
      <trkpt lat="42.67223" lon="1.72145">
        <ele>1806</ele>
        <time>2018-08-19T07:02:29Z</time>
      </trkpt>
      <trkpt lat="42.67219" lon="1.72158">
        <ele>1807.300049</ele>
        <time>2018-08-19T07:02:53Z</time>
      </trkpt>
      <trkpt lat="42.67221" lon="1.72171">
        <ele>1810.199951</ele>
        <time>2018-08-19T07:03:06Z</time>
      </trkpt>
      <trkpt lat="42.67224" lon="1.72184">
        <ele>1813.099976</ele>
        <time>2018-08-19T07:03:14Z</time>
      </trkpt>
      <trkpt lat="42.67218" lon="1.72204">
        <ele>1814</ele>
        <time>2018-08-19T07:03:36Z</time>
      </trkpt>
      <trkpt lat="42.67222" lon="1.72216">
        <ele>1817.099976</ele>
        <time>2018-08-19T07:03:50Z</time>
      </trkpt>
      <trkpt lat="42.67214" lon="1.72225">
        <ele>1817.099976</ele>
        <time>2018-08-19T07:04:13Z</time>
      </trkpt>
      <trkpt lat="42.67211" lon="1.72237">
        <ele>1814.800049</ele>
        <time>2018-08-19T07:04:33Z</time>
      </trkpt>
      <trkpt lat="42.67209" lon="1.72254">
        <ele>1816.699951</ele>
        <time>2018-08-19T07:05:00Z</time>
      </trkpt>
      <trkpt lat="42.67204" lon="1.72265">
        <ele>1817.400024</ele>
        <time>2018-08-19T07:05:16Z</time>
      </trkpt>
      <trkpt lat="42.67204" lon="1.72278">
        <ele>1819</ele>
        <time>2018-08-19T07:05:30Z</time>
      </trkpt>
      <trkpt lat="42.67204" lon="1.72291">
        <ele>1821.900024</ele>
        <time>2018-08-19T07:05:38Z</time>
      </trkpt>
      <trkpt lat="42.67199" lon="1.72301">
        <ele>1822.599976</ele>
        <time>2018-08-19T07:05:55Z</time>
      </trkpt>
      <trkpt lat="42.67198" lon="1.72314">
        <ele>1824.300049</ele>
        <time>2018-08-19T07:06:14Z</time>
      </trkpt>
      <trkpt lat="42.672" lon="1.72326">
        <ele>1827.800049</ele>
        <time>2018-08-19T07:06:31Z</time>
      </trkpt>
      <trkpt lat="42.67206" lon="1.72336">
        <ele>1832.800049</ele>
        <time>2018-08-19T07:06:42Z</time>
      </trkpt>
      <trkpt lat="42.67212" lon="1.72346">
        <ele>1837.800049</ele>
        <time>2018-08-19T07:06:52Z</time>
      </trkpt>
      <trkpt lat="42.67218" lon="1.72356">
        <ele>1843</ele>
        <time>2018-08-19T07:07:05Z</time>
      </trkpt>
      <trkpt lat="42.67218" lon="1.72369">
        <ele>1846.5</ele>
        <time>2018-08-19T07:07:16Z</time>
      </trkpt>
      <trkpt lat="42.67212" lon="1.72378">
        <ele>1845.400024</ele>
        <time>2018-08-19T07:07:30Z</time>
      </trkpt>
      <trkpt lat="42.6721" lon="1.72391">
        <ele>1846.199951</ele>
        <time>2018-08-19T07:08:03Z</time>
      </trkpt>
      <trkpt lat="42.67205" lon="1.72403">
        <ele>1846.199951</ele>
        <time>2018-08-19T07:08:10Z</time>
      </trkpt>
      <trkpt lat="42.67197" lon="1.72409">
        <ele>1843.900024</ele>
        <time>2018-08-19T07:08:20Z</time>
      </trkpt>
      <trkpt lat="42.67189" lon="1.72417">
        <ele>1840.800049</ele>
        <time>2018-08-19T07:08:31Z</time>
      </trkpt>
      <trkpt lat="42.67185" lon="1.72428">
        <ele>1838.900024</ele>
        <time>2018-08-19T07:08:41Z</time>
      </trkpt>
      <trkpt lat="42.67181" lon="1.7244">
        <ele>1837.400024</ele>
        <time>2018-08-19T07:08:53Z</time>
      </trkpt>
      <trkpt lat="42.67175" lon="1.72449">
        <ele>1835.699951</ele>
        <time>2018-08-19T07:09:08Z</time>
      </trkpt>
      <trkpt lat="42.67172" lon="1.72461">
        <ele>1834.300049</ele>
        <time>2018-08-19T07:09:17Z</time>
      </trkpt>
      <trkpt lat="42.67168" lon="1.72472">
        <ele>1833.599976</ele>
        <time>2018-08-19T07:09:30Z</time>
      </trkpt>
      <trkpt lat="42.67159" lon="1.72478">
        <ele>1830.699951</ele>
        <time>2018-08-19T07:09:44Z</time>
      </trkpt>
      <trkpt lat="42.67157" lon="1.72491">
        <ele>1830.300049</ele>
        <time>2018-08-19T07:09:59Z</time>
      </trkpt>
      <trkpt lat="42.67154" lon="1.72503">
        <ele>1830.699951</ele>
        <time>2018-08-19T07:10:09Z</time>
      </trkpt>
      <trkpt lat="42.67152" lon="1.72516">
        <ele>1832.800049</ele>
        <time>2018-08-19T07:10:22Z</time>
      </trkpt>
      <trkpt lat="42.67147" lon="1.72526">
        <ele>1834.199951</ele>
        <time>2018-08-19T07:10:35Z</time>
      </trkpt>
      <trkpt lat="42.67138" lon="1.72532">
        <ele>1833.300049</ele>
        <time>2018-08-19T07:10:47Z</time>
      </trkpt>
      <trkpt lat="42.6713" lon="1.72539">
        <ele>1832</ele>
        <time>2018-08-19T07:10:57Z</time>
      </trkpt>
      <trkpt lat="42.67121" lon="1.72543">
        <ele>1830.300049</ele>
        <time>2018-08-19T07:11:07Z</time>
      </trkpt>
      <trkpt lat="42.67114" lon="1.72552">
        <ele>1829.199951</ele>
        <time>2018-08-19T07:11:16Z</time>
      </trkpt>
      <trkpt lat="42.67105" lon="1.72556">
        <ele>1827.5</ele>
        <time>2018-08-19T07:11:25Z</time>
      </trkpt>
      <trkpt lat="42.67097" lon="1.72564">
        <ele>1825.800049</ele>
        <time>2018-08-19T07:11:35Z</time>
      </trkpt>
      <trkpt lat="42.67096" lon="1.72576">
        <ele>1827.099976</ele>
        <time>2018-08-19T07:11:49Z</time>
      </trkpt>
      <trkpt lat="42.67089" lon="1.72585">
        <ele>1826.800049</ele>
        <time>2018-08-19T07:12:01Z</time>
      </trkpt>
      <trkpt lat="42.67082" lon="1.72594">
        <ele>1825.900024</ele>
        <time>2018-08-19T07:12:12Z</time>
      </trkpt>
      <trkpt lat="42.67075" lon="1.72603">
        <ele>1826.400024</ele>
        <time>2018-08-19T07:12:22Z</time>
      </trkpt>
      <trkpt lat="42.67069" lon="1.72612">
        <ele>1827.300049</ele>
        <time>2018-08-19T07:12:32Z</time>
      </trkpt>
      <trkpt lat="42.67064" lon="1.72623">
        <ele>1828.699951</ele>
        <time>2018-08-19T07:12:42Z</time>
      </trkpt>
      <trkpt lat="42.67062" lon="1.72635">
        <ele>1830.099976</ele>
        <time>2018-08-19T07:12:51Z</time>
      </trkpt>
      <trkpt lat="42.6706" lon="1.72647">
        <ele>1832.199951</ele>
        <time>2018-08-19T07:13:05Z</time>
      </trkpt>
      <trkpt lat="42.67051" lon="1.72646">
        <ele>1831.5</ele>
        <time>2018-08-19T07:13:14Z</time>
      </trkpt>
      <trkpt lat="42.67042" lon="1.72649">
        <ele>1830.800049</ele>
        <time>2018-08-19T07:13:34Z</time>
      </trkpt>
      <trkpt lat="42.67033" lon="1.72652">
        <ele>1830</ele>
        <time>2018-08-19T07:13:46Z</time>
      </trkpt>
      <trkpt lat="42.67024" lon="1.72658">
        <ele>1829.199951</ele>
        <time>2018-08-19T07:13:58Z</time>
      </trkpt>
      <trkpt lat="42.67019" lon="1.72669">
        <ele>1829.900024</ele>
        <time>2018-08-19T07:14:09Z</time>
      </trkpt>
      <trkpt lat="42.67015" lon="1.7268">
        <ele>1830.800049</ele>
        <time>2018-08-19T07:14:21Z</time>
      </trkpt>
      <trkpt lat="42.67014" lon="1.72693">
        <ele>1832.300049</ele>
        <time>2018-08-19T07:14:35Z</time>
      </trkpt>
      <trkpt lat="42.67011" lon="1.72705">
        <ele>1833.699951</ele>
        <time>2018-08-19T07:14:49Z</time>
      </trkpt>
      <trkpt lat="42.67002" lon="1.7271">
        <ele>1833.400024</ele>
        <time>2018-08-19T07:15:00Z</time>
      </trkpt>
      <trkpt lat="42.66994" lon="1.72715">
        <ele>1833.099976</ele>
        <time>2018-08-19T07:15:10Z</time>
      </trkpt>
      <trkpt lat="42.66985" lon="1.72718">
        <ele>1833.599976</ele>
        <time>2018-08-19T07:15:24Z</time>
      </trkpt>
      <trkpt lat="42.66981" lon="1.72729">
        <ele>1834.900024</ele>
        <time>2018-08-19T07:15:35Z</time>
      </trkpt>
      <trkpt lat="42.66974" lon="1.72739">
        <ele>1836.300049</ele>
        <time>2018-08-19T07:15:47Z</time>
      </trkpt>
      <trkpt lat="42.66968" lon="1.72749">
        <ele>1837.699951</ele>
        <time>2018-08-19T07:15:57Z</time>
      </trkpt>
      <trkpt lat="42.66963" lon="1.7276">
        <ele>1839</ele>
        <time>2018-08-19T07:16:07Z</time>
      </trkpt>
      <trkpt lat="42.66954" lon="1.72767">
        <ele>1839.900024</ele>
        <time>2018-08-19T07:16:25Z</time>
      </trkpt>
      <trkpt lat="42.6695" lon="1.72779">
        <ele>1840.699951</ele>
        <time>2018-08-19T07:16:39Z</time>
      </trkpt>
      <trkpt lat="42.66945" lon="1.72789">
        <ele>1841.400024</ele>
        <time>2018-08-19T07:17:09Z</time>
      </trkpt>
      <trkpt lat="42.66939" lon="1.7278">
        <ele>1841.099976</ele>
        <time>2018-08-19T07:17:18Z</time>
      </trkpt>
      <trkpt lat="42.66937" lon="1.72794">
        <ele>1841.5</ele>
        <time>2018-08-19T07:23:34Z</time>
      </trkpt>
      <trkpt lat="42.66936" lon="1.72806">
        <ele>1842.699951</ele>
        <time>2018-08-19T07:23:49Z</time>
      </trkpt>
      <trkpt lat="42.66944" lon="1.72814">
        <ele>1843.5</ele>
        <time>2018-08-19T07:24:05Z</time>
      </trkpt>
      <trkpt lat="42.66953" lon="1.72818">
        <ele>1844.099976</ele>
        <time>2018-08-19T07:24:15Z</time>
      </trkpt>
      <trkpt lat="42.6696" lon="1.72826">
        <ele>1845.199951</ele>
        <time>2018-08-19T07:24:38Z</time>
      </trkpt>
      <trkpt lat="42.66964" lon="1.72838">
        <ele>1846.400024</ele>
        <time>2018-08-19T07:24:48Z</time>
      </trkpt>
      <trkpt lat="42.66968" lon="1.72849">
        <ele>1848.400024</ele>
        <time>2018-08-19T07:25:01Z</time>
      </trkpt>
      <trkpt lat="42.66968" lon="1.72862">
        <ele>1850.5</ele>
        <time>2018-08-19T07:25:12Z</time>
      </trkpt>
      <trkpt lat="42.66968" lon="1.72874">
        <ele>1852.699951</ele>
        <time>2018-08-19T07:25:24Z</time>
      </trkpt>
      <trkpt lat="42.6697" lon="1.72886">
        <ele>1854.900024</ele>
        <time>2018-08-19T07:25:36Z</time>
      </trkpt>
      <trkpt lat="42.6697" lon="1.729">
        <ele>1857</ele>
        <time>2018-08-19T07:25:55Z</time>
      </trkpt>
      <trkpt lat="42.66974" lon="1.72912">
        <ele>1859.300049</ele>
        <time>2018-08-19T07:26:06Z</time>
      </trkpt>
      <trkpt lat="42.66977" lon="1.72924">
        <ele>1862.699951</ele>
        <time>2018-08-19T07:26:26Z</time>
      </trkpt>
      <trkpt lat="42.66985" lon="1.72932">
        <ele>1866</ele>
        <time>2018-08-19T07:26:37Z</time>
      </trkpt>
      <trkpt lat="42.66982" lon="1.72944">
        <ele>1870.900024</ele>
        <time>2018-08-19T07:27:00Z</time>
      </trkpt>
      <trkpt lat="42.66976" lon="1.72955">
        <ele>1873.199951</ele>
        <time>2018-08-19T07:27:14Z</time>
      </trkpt>
      <trkpt lat="42.6697" lon="1.72964">
        <ele>1875.699951</ele>
        <time>2018-08-19T07:27:37Z</time>
      </trkpt>
      <trkpt lat="42.66975" lon="1.72974">
        <ele>1879.5</ele>
        <time>2018-08-19T07:28:04Z</time>
      </trkpt>
      <trkpt lat="42.66982" lon="1.72982">
        <ele>1883.699951</ele>
        <time>2018-08-19T07:28:21Z</time>
      </trkpt>
      <trkpt lat="42.66989" lon="1.72993">
        <ele>1889</ele>
        <time>2018-08-19T07:29:08Z</time>
      </trkpt>
      <trkpt lat="42.66982" lon="1.73002">
        <ele>1891</ele>
        <time>2018-08-19T07:29:35Z</time>
      </trkpt>
      <trkpt lat="42.6698" lon="1.73015">
        <ele>1895</ele>
        <time>2018-08-19T07:29:52Z</time>
      </trkpt>
      <trkpt lat="42.66976" lon="1.73026">
        <ele>1898.599976</ele>
        <time>2018-08-19T07:30:07Z</time>
      </trkpt>
      <trkpt lat="42.66967" lon="1.73031">
        <ele>1898.300049</ele>
        <time>2018-08-19T07:30:19Z</time>
      </trkpt>
      <trkpt lat="42.6696" lon="1.73037">
        <ele>1899</ele>
        <time>2018-08-19T07:30:30Z</time>
      </trkpt>
      <trkpt lat="42.66961" lon="1.7305">
        <ele>1902.900024</ele>
        <time>2018-08-19T07:30:46Z</time>
      </trkpt>
      <trkpt lat="42.66962" lon="1.73062">
        <ele>1908</ele>
        <time>2018-08-19T07:31:02Z</time>
      </trkpt>
      <trkpt lat="42.66963" lon="1.73075">
        <ele>1913</ele>
        <time>2018-08-19T07:31:56Z</time>
      </trkpt>
      <trkpt lat="42.66966" lon="1.73088">
        <ele>1917.599976</ele>
        <time>2018-08-19T07:32:16Z</time>
      </trkpt>
      <trkpt lat="42.66964" lon="1.73101">
        <ele>1922.900024</ele>
        <time>2018-08-19T07:32:38Z</time>
      </trkpt>
      <trkpt lat="42.66971" lon="1.73112">
        <ele>1928.599976</ele>
        <time>2018-08-19T07:33:08Z</time>
      </trkpt>
      <trkpt lat="42.66978" lon="1.7312">
        <ele>1934.900024</ele>
        <time>2018-08-19T07:33:25Z</time>
      </trkpt>
      <trkpt lat="42.66985" lon="1.73129">
        <ele>1939.800049</ele>
        <time>2018-08-19T07:33:39Z</time>
      </trkpt>
      <trkpt lat="42.66992" lon="1.73137">
        <ele>1944.800049</ele>
        <time>2018-08-19T07:33:49Z</time>
      </trkpt>
      <trkpt lat="42.67001" lon="1.73138">
        <ele>1950</ele>
        <time>2018-08-19T07:35:41Z</time>
      </trkpt>
      <trkpt lat="42.6701" lon="1.73134">
        <ele>1953.400024</ele>
        <time>2018-08-19T07:35:58Z</time>
      </trkpt>
      <trkpt lat="42.67018" lon="1.73128">
        <ele>1954.900024</ele>
        <time>2018-08-19T07:36:17Z</time>
      </trkpt>
      <trkpt lat="42.67026" lon="1.7312">
        <ele>1954.699951</ele>
        <time>2018-08-19T07:36:32Z</time>
      </trkpt>
      <trkpt lat="42.67035" lon="1.73121">
        <ele>1958.599976</ele>
        <time>2018-08-19T07:36:41Z</time>
      </trkpt>
      <trkpt lat="42.6704" lon="1.73131">
        <ele>1966.300049</ele>
        <time>2018-08-19T07:37:07Z</time>
      </trkpt>
      <trkpt lat="42.67039" lon="1.73143">
        <ele>1971.699951</ele>
        <time>2018-08-19T07:37:45Z</time>
      </trkpt>
      <trkpt lat="42.67051" lon="1.73156">
        <ele>1981</ele>
        <time>2018-08-19T07:39:39Z</time>
      </trkpt>
      <trkpt lat="42.67061" lon="1.73154">
        <ele>1985.099976</ele>
        <time>2018-08-19T07:39:58Z</time>
      </trkpt>
      <trkpt lat="42.67051" lon="1.73156">
        <ele>1984.599976</ele>
        <time>2018-08-19T07:40:20Z</time>
      </trkpt>
      <trkpt lat="42.67043" lon="1.73162">
        <ele>1982</ele>
        <time>2018-08-19T07:40:36Z</time>
      </trkpt>
      <trkpt lat="42.67052" lon="1.73168">
        <ele>1985.800049</ele>
        <time>2018-08-19T07:40:48Z</time>
      </trkpt>
      <trkpt lat="42.67061" lon="1.73173">
        <ele>1993.400024</ele>
        <time>2018-08-19T07:41:00Z</time>
      </trkpt>
      <trkpt lat="42.67071" lon="1.73174">
        <ele>1999.300049</ele>
        <time>2018-08-19T07:41:16Z</time>
      </trkpt>
      <trkpt lat="42.67063" lon="1.73182">
        <ele>2000.400024</ele>
        <time>2018-08-19T07:41:31Z</time>
      </trkpt>
      <trkpt lat="42.67072" lon="1.7319">
        <ele>2004.099976</ele>
        <time>2018-08-19T07:42:01Z</time>
      </trkpt>
      <trkpt lat="42.67066" lon="1.732">
        <ele>2006.199951</ele>
        <time>2018-08-19T07:42:26Z</time>
      </trkpt>
      <trkpt lat="42.67071" lon="1.73211">
        <ele>2011.400024</ele>
        <time>2018-08-19T07:42:38Z</time>
      </trkpt>
      <trkpt lat="42.67079" lon="1.73218">
        <ele>2016.900024</ele>
        <time>2018-08-19T07:42:47Z</time>
      </trkpt>
      <trkpt lat="42.67086" lon="1.73225">
        <ele>2023.599976</ele>
        <time>2018-08-19T07:42:56Z</time>
      </trkpt>
      <trkpt lat="42.67092" lon="1.73234">
        <ele>2028.699951</ele>
        <time>2018-08-19T07:43:14Z</time>
      </trkpt>
      <trkpt lat="42.67102" lon="1.73235">
        <ele>2034.599976</ele>
        <time>2018-08-19T07:45:08Z</time>
      </trkpt>
      <trkpt lat="42.6711" lon="1.73231">
        <ele>2036.5</ele>
        <time>2018-08-19T07:45:28Z</time>
      </trkpt>
      <trkpt lat="42.67117" lon="1.73222">
        <ele>2035.699951</ele>
        <time>2018-08-19T07:45:42Z</time>
      </trkpt>
      <trkpt lat="42.67127" lon="1.73218">
        <ele>2038.099976</ele>
        <time>2018-08-19T07:45:56Z</time>
      </trkpt>
      <trkpt lat="42.67136" lon="1.73213">
        <ele>2040.099976</ele>
        <time>2018-08-19T07:46:11Z</time>
      </trkpt>
      <trkpt lat="42.67143" lon="1.73204">
        <ele>2039.800049</ele>
        <time>2018-08-19T07:46:29Z</time>
      </trkpt>
      <trkpt lat="42.67152" lon="1.73202">
        <ele>2041.400024</ele>
        <time>2018-08-19T07:46:39Z</time>
      </trkpt>
      <trkpt lat="42.67161" lon="1.73203">
        <ele>2044.800049</ele>
        <time>2018-08-19T07:47:17Z</time>
      </trkpt>
      <trkpt lat="42.67171" lon="1.73203">
        <ele>2049.600098</ele>
        <time>2018-08-19T07:47:29Z</time>
      </trkpt>
      <trkpt lat="42.67181" lon="1.732">
        <ele>2052.300049</ele>
        <time>2018-08-19T07:47:42Z</time>
      </trkpt>
      <trkpt lat="42.67189" lon="1.73204">
        <ele>2058.399902</ele>
        <time>2018-08-19T07:48:06Z</time>
      </trkpt>
      <trkpt lat="42.6718" lon="1.732">
        <ele>2056.199951</ele>
        <time>2018-08-19T07:48:34Z</time>
      </trkpt>
      <trkpt lat="42.6719" lon="1.73201">
        <ele>2057.899902</ele>
        <time>2018-08-19T07:50:31Z</time>
      </trkpt>
      <trkpt lat="42.67201" lon="1.73205">
        <ele>2062.300049</ele>
        <time>2018-08-19T07:50:41Z</time>
      </trkpt>
      <trkpt lat="42.67209" lon="1.7321">
        <ele>2068.800049</ele>
        <time>2018-08-19T07:51:18Z</time>
      </trkpt>
      <trkpt lat="42.67218" lon="1.73208">
        <ele>2072.199951</ele>
        <time>2018-08-19T07:51:31Z</time>
      </trkpt>
      <trkpt lat="42.67226" lon="1.73204">
        <ele>2075.300049</ele>
        <time>2018-08-19T07:51:49Z</time>
      </trkpt>
      <trkpt lat="42.67226" lon="1.73217">
        <ele>2078.5</ele>
        <time>2018-08-19T07:52:23Z</time>
      </trkpt>
      <trkpt lat="42.67229" lon="1.73228">
        <ele>2082.100098</ele>
        <time>2018-08-19T07:52:36Z</time>
      </trkpt>
      <trkpt lat="42.67239" lon="1.7323">
        <ele>2086</ele>
        <time>2018-08-19T07:52:50Z</time>
      </trkpt>
      <trkpt lat="42.67248" lon="1.73233">
        <ele>2089.699951</ele>
        <time>2018-08-19T07:53:06Z</time>
      </trkpt>
      <trkpt lat="42.67254" lon="1.73244">
        <ele>2092.399902</ele>
        <time>2018-08-19T07:53:17Z</time>
      </trkpt>
      <trkpt lat="42.67257" lon="1.73256">
        <ele>2092.899902</ele>
        <time>2018-08-19T07:53:31Z</time>
      </trkpt>
      <trkpt lat="42.67254" lon="1.73267">
        <ele>2091.800049</ele>
        <time>2018-08-19T07:53:51Z</time>
      </trkpt>
      <trkpt lat="42.67249" lon="1.73278">
        <ele>2091.699951</ele>
        <time>2018-08-19T07:54:04Z</time>
      </trkpt>
      <trkpt lat="42.67247" lon="1.73291">
        <ele>2090.5</ele>
        <time>2018-08-19T07:54:15Z</time>
      </trkpt>
      <trkpt lat="42.67248" lon="1.73305">
        <ele>2089.5</ele>
        <time>2018-08-19T07:54:23Z</time>
      </trkpt>
      <trkpt lat="42.6725" lon="1.73317">
        <ele>2088.600098</ele>
        <time>2018-08-19T07:54:32Z</time>
      </trkpt>
      <trkpt lat="42.67256" lon="1.73326">
        <ele>2087.100098</ele>
        <time>2018-08-19T07:54:39Z</time>
      </trkpt>
      <trkpt lat="42.67262" lon="1.73337">
        <ele>2084.5</ele>
        <time>2018-08-19T07:54:51Z</time>
      </trkpt>
      <trkpt lat="42.67265" lon="1.73349">
        <ele>2082.5</ele>
        <time>2018-08-19T07:55:00Z</time>
      </trkpt>
      <trkpt lat="42.6727" lon="1.7336">
        <ele>2079.899902</ele>
        <time>2018-08-19T07:55:12Z</time>
      </trkpt>
      <trkpt lat="42.67275" lon="1.73371">
        <ele>2077.199951</ele>
        <time>2018-08-19T07:55:24Z</time>
      </trkpt>
      <trkpt lat="42.67281" lon="1.7338">
        <ele>2074.600098</ele>
        <time>2018-08-19T07:55:37Z</time>
      </trkpt>
      <trkpt lat="42.67283" lon="1.73407">
        <ele>2071</ele>
        <time>2018-08-19T08:00:00Z</time>
      </trkpt>
      <trkpt lat="42.67274" lon="1.73408">
        <ele>2072.5</ele>
        <time>2018-08-19T08:01:34Z</time>
      </trkpt>
      <trkpt lat="42.67265" lon="1.73413">
        <ele>2074.300049</ele>
        <time>2018-08-19T08:01:44Z</time>
      </trkpt>
      <trkpt lat="42.67258" lon="1.73423">
        <ele>2076.199951</ele>
        <time>2018-08-19T08:01:59Z</time>
      </trkpt>
      <trkpt lat="42.67257" lon="1.73436">
        <ele>2074.699951</ele>
        <time>2018-08-19T08:02:15Z</time>
      </trkpt>
      <trkpt lat="42.67256" lon="1.73449">
        <ele>2074.199951</ele>
        <time>2018-08-19T08:02:17Z</time>
      </trkpt>
      <trkpt lat="42.67252" lon="1.7346">
        <ele>2073.300049</ele>
        <time>2018-08-19T08:02:53Z</time>
      </trkpt>
      <trkpt lat="42.6725" lon="1.73473">
        <ele>2071.899902</ele>
        <time>2018-08-19T08:03:03Z</time>
      </trkpt>
      <trkpt lat="42.67247" lon="1.73486">
        <ele>2071</ele>
        <time>2018-08-19T08:03:19Z</time>
      </trkpt>
      <trkpt lat="42.67242" lon="1.73499">
        <ele>2070.199951</ele>
        <time>2018-08-19T08:03:41Z</time>
      </trkpt>
      <trkpt lat="42.67235" lon="1.73507">
        <ele>2071.699951</ele>
        <time>2018-08-19T08:03:59Z</time>
      </trkpt>
      <trkpt lat="42.67239" lon="1.73518">
        <ele>2071.300049</ele>
        <time>2018-08-19T08:04:09Z</time>
      </trkpt>
      <trkpt lat="42.67239" lon="1.73531">
        <ele>2070.800049</ele>
        <time>2018-08-19T08:04:24Z</time>
      </trkpt>
      <trkpt lat="42.67237" lon="1.73543">
        <ele>2070.5</ele>
        <time>2018-08-19T08:04:36Z</time>
      </trkpt>
      <trkpt lat="42.67245" lon="1.73552">
        <ele>2069.199951</ele>
        <time>2018-08-19T08:04:56Z</time>
      </trkpt>
      <trkpt lat="42.67254" lon="1.73551">
        <ele>2066.300049</ele>
        <time>2018-08-19T08:05:04Z</time>
      </trkpt>
      <trkpt lat="42.67262" lon="1.73559">
        <ele>2062.899902</ele>
        <time>2018-08-19T08:05:18Z</time>
      </trkpt>
      <trkpt lat="42.67266" lon="1.73572">
        <ele>2060.399902</ele>
        <time>2018-08-19T08:05:48Z</time>
      </trkpt>
      <trkpt lat="42.67263" lon="1.73584">
        <ele>2061</ele>
        <time>2018-08-19T08:06:03Z</time>
      </trkpt>
      <trkpt lat="42.67264" lon="1.73597">
        <ele>2063.800049</ele>
        <time>2018-08-19T08:06:19Z</time>
      </trkpt>
      <trkpt lat="42.67267" lon="1.73609">
        <ele>2065.699951</ele>
        <time>2018-08-19T08:06:35Z</time>
      </trkpt>
      <trkpt lat="42.6726" lon="1.73651">
        <ele>2076</ele>
        <time>2018-08-19T08:07:54Z</time>
      </trkpt>
      <trkpt lat="42.67266" lon="1.7366">
        <ele>2082.399902</ele>
        <time>2018-08-19T08:09:27Z</time>
      </trkpt>
      <trkpt lat="42.67274" lon="1.73668">
        <ele>2079.300049</ele>
        <time>2018-08-19T08:09:39Z</time>
      </trkpt>
      <trkpt lat="42.67279" lon="1.7368">
        <ele>2079.100098</ele>
        <time>2018-08-19T08:09:53Z</time>
      </trkpt>
      <trkpt lat="42.67283" lon="1.73692">
        <ele>2079.300049</ele>
        <time>2018-08-19T08:10:03Z</time>
      </trkpt>
      <trkpt lat="42.67288" lon="1.73703">
        <ele>2079.100098</ele>
        <time>2018-08-19T08:10:16Z</time>
      </trkpt>
      <trkpt lat="42.67289" lon="1.73716">
        <ele>2081.800049</ele>
        <time>2018-08-19T08:10:29Z</time>
      </trkpt>
      <trkpt lat="42.67291" lon="1.73729">
        <ele>2082.699951</ele>
        <time>2018-08-19T08:11:02Z</time>
      </trkpt>
      <trkpt lat="42.67291" lon="1.73741">
        <ele>2085.399902</ele>
        <time>2018-08-19T08:11:11Z</time>
      </trkpt>
      <trkpt lat="42.67289" lon="1.73753">
        <ele>2089.600098</ele>
        <time>2018-08-19T08:11:25Z</time>
      </trkpt>
      <trkpt lat="42.6729" lon="1.73766">
        <ele>2090.399902</ele>
        <time>2018-08-19T08:11:38Z</time>
      </trkpt>
      <trkpt lat="42.67287" lon="1.73781">
        <ele>2091.800049</ele>
        <time>2018-08-19T08:11:48Z</time>
      </trkpt>
      <trkpt lat="42.67287" lon="1.73794">
        <ele>2093.5</ele>
        <time>2018-08-19T08:11:55Z</time>
      </trkpt>
      <trkpt lat="42.67284" lon="1.73807">
        <ele>2095.899902</ele>
        <time>2018-08-19T08:12:07Z</time>
      </trkpt>
      <trkpt lat="42.6728" lon="1.73818">
        <ele>2100.800049</ele>
        <time>2018-08-19T08:12:18Z</time>
      </trkpt>
      <trkpt lat="42.67277" lon="1.73831">
        <ele>2103.800049</ele>
        <time>2018-08-19T08:12:25Z</time>
      </trkpt>
      <trkpt lat="42.67272" lon="1.73842">
        <ele>2108.5</ele>
        <time>2018-08-19T08:12:36Z</time>
      </trkpt>
      <trkpt lat="42.67269" lon="1.73853">
        <ele>2111.300049</ele>
        <time>2018-08-19T08:12:45Z</time>
      </trkpt>
      <trkpt lat="42.67265" lon="1.73865">
        <ele>2114.199951</ele>
        <time>2018-08-19T08:12:57Z</time>
      </trkpt>
      <trkpt lat="42.67264" lon="1.73878">
        <ele>2115.600098</ele>
        <time>2018-08-19T08:13:05Z</time>
      </trkpt>
      <trkpt lat="42.67262" lon="1.7389">
        <ele>2116.600098</ele>
        <time>2018-08-19T08:13:16Z</time>
      </trkpt>
      <trkpt lat="42.67254" lon="1.73896">
        <ele>2121.899902</ele>
        <time>2018-08-19T08:13:28Z</time>
      </trkpt>
      <trkpt lat="42.67247" lon="1.73906">
        <ele>2127.5</ele>
        <time>2018-08-19T08:13:39Z</time>
      </trkpt>
      <trkpt lat="42.67227" lon="1.73922">
        <ele>2136</ele>
        <time>2018-08-19T08:16:17Z</time>
      </trkpt>
      <trkpt lat="42.67218" lon="1.73928">
        <ele>2142.300049</ele>
        <time>2018-08-19T08:16:22Z</time>
      </trkpt>
      <trkpt lat="42.67211" lon="1.73937">
        <ele>2148.399902</ele>
        <time>2018-08-19T08:16:34Z</time>
      </trkpt>
      <trkpt lat="42.67206" lon="1.73947">
        <ele>2150.5</ele>
        <time>2018-08-19T08:16:43Z</time>
      </trkpt>
      <trkpt lat="42.67199" lon="1.73956">
        <ele>2153.5</ele>
        <time>2018-08-19T08:16:52Z</time>
      </trkpt>
      <trkpt lat="42.67194" lon="1.73966">
        <ele>2155.800049</ele>
        <time>2018-08-19T08:17:02Z</time>
      </trkpt>
      <trkpt lat="42.67188" lon="1.73976">
        <ele>2157.800049</ele>
        <time>2018-08-19T08:17:13Z</time>
      </trkpt>
      <trkpt lat="42.67181" lon="1.73983">
        <ele>2161.5</ele>
        <time>2018-08-19T08:17:24Z</time>
      </trkpt>
      <trkpt lat="42.67173" lon="1.7399">
        <ele>2165.5</ele>
        <time>2018-08-19T08:17:33Z</time>
      </trkpt>
      <trkpt lat="42.67165" lon="1.73995">
        <ele>2169.5</ele>
        <time>2018-08-19T08:17:39Z</time>
      </trkpt>
      <trkpt lat="42.67156" lon="1.74">
        <ele>2172.899902</ele>
        <time>2018-08-19T08:17:46Z</time>
      </trkpt>
      <trkpt lat="42.67149" lon="1.74008">
        <ele>2174</ele>
        <time>2018-08-19T08:17:53Z</time>
      </trkpt>
      <trkpt lat="42.67143" lon="1.74019">
        <ele>2172.199951</ele>
        <time>2018-08-19T08:18:08Z</time>
      </trkpt>
      <trkpt lat="42.67135" lon="1.74023">
        <ele>2174</ele>
        <time>2018-08-19T08:18:22Z</time>
      </trkpt>
      <trkpt lat="42.67125" lon="1.74022">
        <ele>2176.899902</ele>
        <time>2018-08-19T08:18:30Z</time>
      </trkpt>
      <trkpt lat="42.67116" lon="1.74025">
        <ele>2180</ele>
        <time>2018-08-19T08:18:36Z</time>
      </trkpt>
      <trkpt lat="42.67107" lon="1.74027">
        <ele>2183.399902</ele>
        <time>2018-08-19T08:18:48Z</time>
      </trkpt>
      <trkpt lat="42.67098" lon="1.74033">
        <ele>2185.199951</ele>
        <time>2018-08-19T08:18:56Z</time>
      </trkpt>
      <trkpt lat="42.67092" lon="1.74043">
        <ele>2185.899902</ele>
        <time>2018-08-19T08:19:07Z</time>
      </trkpt>
      <trkpt lat="42.67086" lon="1.74053">
        <ele>2185.5</ele>
        <time>2018-08-19T08:19:18Z</time>
      </trkpt>
      <trkpt lat="42.67078" lon="1.74061">
        <ele>2185.899902</ele>
        <time>2018-08-19T08:19:26Z</time>
      </trkpt>
      <trkpt lat="42.67073" lon="1.74072">
        <ele>2185.800049</ele>
        <time>2018-08-19T08:19:35Z</time>
      </trkpt>
      <trkpt lat="42.67067" lon="1.74083">
        <ele>2185.199951</ele>
        <time>2018-08-19T08:19:49Z</time>
      </trkpt>
      <trkpt lat="42.6706" lon="1.74091">
        <ele>2185.199951</ele>
        <time>2018-08-19T08:19:58Z</time>
      </trkpt>
      <trkpt lat="42.67054" lon="1.74102">
        <ele>2185.300049</ele>
        <time>2018-08-19T08:20:07Z</time>
      </trkpt>
      <trkpt lat="42.67049" lon="1.74114">
        <ele>2183.699951</ele>
        <time>2018-08-19T08:20:15Z</time>
      </trkpt>
      <trkpt lat="42.67042" lon="1.74123">
        <ele>2184</ele>
        <time>2018-08-19T08:20:23Z</time>
      </trkpt>
      <trkpt lat="42.67038" lon="1.74136">
        <ele>2184.100098</ele>
        <time>2018-08-19T08:20:33Z</time>
      </trkpt>
      <trkpt lat="42.67032" lon="1.74146">
        <ele>2183.600098</ele>
        <time>2018-08-19T08:20:41Z</time>
      </trkpt>
      <trkpt lat="42.67023" lon="1.74153">
        <ele>2185.899902</ele>
        <time>2018-08-19T08:20:52Z</time>
      </trkpt>
      <trkpt lat="42.67017" lon="1.74162">
        <ele>2188.5</ele>
        <time>2018-08-19T08:21:00Z</time>
      </trkpt>
      <trkpt lat="42.67011" lon="1.74172">
        <ele>2190.399902</ele>
        <time>2018-08-19T08:21:10Z</time>
      </trkpt>
      <trkpt lat="42.67003" lon="1.74181">
        <ele>2192.5</ele>
        <time>2018-08-19T08:21:19Z</time>
      </trkpt>
      <trkpt lat="42.66998" lon="1.74191">
        <ele>2193.899902</ele>
        <time>2018-08-19T08:21:30Z</time>
      </trkpt>
      <trkpt lat="42.66991" lon="1.742">
        <ele>2195.100098</ele>
        <time>2018-08-19T08:22:34Z</time>
      </trkpt>
      <trkpt lat="42.66985" lon="1.74209">
        <ele>2195.899902</ele>
        <time>2018-08-19T08:22:42Z</time>
      </trkpt>
      <trkpt lat="42.66979" lon="1.74218">
        <ele>2197.399902</ele>
        <time>2018-08-19T08:22:53Z</time>
      </trkpt>
      <trkpt lat="42.66972" lon="1.74228">
        <ele>2199.699951</ele>
        <time>2018-08-19T08:23:18Z</time>
      </trkpt>
      <trkpt lat="42.66967" lon="1.74238">
        <ele>2201.199951</ele>
        <time>2018-08-19T08:23:29Z</time>
      </trkpt>
      <trkpt lat="42.66961" lon="1.74248">
        <ele>2203</ele>
        <time>2018-08-19T08:23:42Z</time>
      </trkpt>
      <trkpt lat="42.66958" lon="1.7426">
        <ele>2204.899902</ele>
        <time>2018-08-19T08:23:53Z</time>
      </trkpt>
      <trkpt lat="42.66953" lon="1.74272">
        <ele>2207.100098</ele>
        <time>2018-08-19T08:24:05Z</time>
      </trkpt>
      <trkpt lat="42.66948" lon="1.74283">
        <ele>2209.800049</ele>
        <time>2018-08-19T08:24:16Z</time>
      </trkpt>
      <trkpt lat="42.66939" lon="1.74289">
        <ele>2213.300049</ele>
        <time>2018-08-19T08:24:25Z</time>
      </trkpt>
      <trkpt lat="42.66931" lon="1.74297">
        <ele>2217.300049</ele>
        <time>2018-08-19T08:24:34Z</time>
      </trkpt>
      <trkpt lat="42.66923" lon="1.74302">
        <ele>2221</ele>
        <time>2018-08-19T08:24:42Z</time>
      </trkpt>
      <trkpt lat="42.66914" lon="1.74305">
        <ele>2225</ele>
        <time>2018-08-19T08:24:50Z</time>
      </trkpt>
      <trkpt lat="42.66904" lon="1.74305">
        <ele>2227.699951</ele>
        <time>2018-08-19T08:24:57Z</time>
      </trkpt>
      <trkpt lat="42.66895" lon="1.74303">
        <ele>2230.899902</ele>
        <time>2018-08-19T08:25:05Z</time>
      </trkpt>
      <trkpt lat="42.66885" lon="1.743">
        <ele>2233.899902</ele>
        <time>2018-08-19T08:25:14Z</time>
      </trkpt>
      <trkpt lat="42.66876" lon="1.74302">
        <ele>2236.699951</ele>
        <time>2018-08-19T08:25:25Z</time>
      </trkpt>
      <trkpt lat="42.66867" lon="1.74304">
        <ele>2239.199951</ele>
        <time>2018-08-19T08:25:36Z</time>
      </trkpt>
      <trkpt lat="42.66858" lon="1.74301">
        <ele>2241.800049</ele>
        <time>2018-08-19T08:25:57Z</time>
      </trkpt>
      <trkpt lat="42.66849" lon="1.74298">
        <ele>2244.100098</ele>
        <time>2018-08-19T08:26:06Z</time>
      </trkpt>
      <trkpt lat="42.66839" lon="1.74296">
        <ele>2246.699951</ele>
        <time>2018-08-19T08:26:16Z</time>
      </trkpt>
      <trkpt lat="42.6683" lon="1.74297">
        <ele>2249.199951</ele>
        <time>2018-08-19T08:26:27Z</time>
      </trkpt>
      <trkpt lat="42.66821" lon="1.743">
        <ele>2250.800049</ele>
        <time>2018-08-19T08:26:38Z</time>
      </trkpt>
      <trkpt lat="42.66812" lon="1.74299">
        <ele>2252.300049</ele>
        <time>2018-08-19T08:26:48Z</time>
      </trkpt>
      <trkpt lat="42.66803" lon="1.74301">
        <ele>2253.800049</ele>
        <time>2018-08-19T08:26:58Z</time>
      </trkpt>
      <trkpt lat="42.66794" lon="1.74303">
        <ele>2255.300049</ele>
        <time>2018-08-19T08:27:07Z</time>
      </trkpt>
      <trkpt lat="42.66785" lon="1.74305">
        <ele>2257</ele>
        <time>2018-08-19T08:27:21Z</time>
      </trkpt>
      <trkpt lat="42.66776" lon="1.74307">
        <ele>2258.5</ele>
        <time>2018-08-19T08:27:31Z</time>
      </trkpt>
      <trkpt lat="42.66767" lon="1.7431">
        <ele>2259.899902</ele>
        <time>2018-08-19T08:27:40Z</time>
      </trkpt>
      <trkpt lat="42.66758" lon="1.74313">
        <ele>2261.899902</ele>
        <time>2018-08-19T08:27:53Z</time>
      </trkpt>
      <trkpt lat="42.66749" lon="1.74317">
        <ele>2263.399902</ele>
        <time>2018-08-19T08:28:04Z</time>
      </trkpt>
      <trkpt lat="42.6674" lon="1.74318">
        <ele>2263.800049</ele>
        <time>2018-08-19T08:28:11Z</time>
      </trkpt>
      <trkpt lat="42.6673" lon="1.74313">
        <ele>2263.699951</ele>
        <time>2018-08-19T08:28:21Z</time>
      </trkpt>
      <trkpt lat="42.66721" lon="1.7431">
        <ele>2263.600098</ele>
        <time>2018-08-19T08:29:06Z</time>
      </trkpt>
      <trkpt lat="42.66712" lon="1.74309">
        <ele>2263.699951</ele>
        <time>2018-08-19T08:36:08Z</time>
      </trkpt>
      <trkpt lat="42.66703" lon="1.74304">
        <ele>2263.699951</ele>
        <time>2018-08-19T08:36:33Z</time>
      </trkpt>
      <trkpt lat="42.66697" lon="1.74294">
        <ele>2263.800049</ele>
        <time>2018-08-19T08:36:46Z</time>
      </trkpt>
      <trkpt lat="42.66689" lon="1.74286">
        <ele>2264.100098</ele>
        <time>2018-08-19T08:36:55Z</time>
      </trkpt>
      <trkpt lat="42.66681" lon="1.74279">
        <ele>2264.699951</ele>
        <time>2018-08-19T08:37:15Z</time>
      </trkpt>
      <trkpt lat="42.66673" lon="1.74272">
        <ele>2265.199951</ele>
        <time>2018-08-19T08:37:22Z</time>
      </trkpt>
      <trkpt lat="42.66666" lon="1.74264">
        <ele>2266</ele>
        <time>2018-08-19T08:37:29Z</time>
      </trkpt>
      <trkpt lat="42.66658" lon="1.74257">
        <ele>2266.699951</ele>
        <time>2018-08-19T08:37:37Z</time>
      </trkpt>
      <trkpt lat="42.6665" lon="1.74249">
        <ele>2267.600098</ele>
        <time>2018-08-19T08:37:44Z</time>
      </trkpt>
      <trkpt lat="42.66642" lon="1.74244">
        <ele>2267.699951</ele>
        <time>2018-08-19T08:37:53Z</time>
      </trkpt>
      <trkpt lat="42.66634" lon="1.74236">
        <ele>2267.300049</ele>
        <time>2018-08-19T08:38:00Z</time>
      </trkpt>
      <trkpt lat="42.66625" lon="1.74231">
        <ele>2266.800049</ele>
        <time>2018-08-19T08:38:08Z</time>
      </trkpt>
      <trkpt lat="42.66617" lon="1.74225">
        <ele>2266.199951</ele>
        <time>2018-08-19T08:38:17Z</time>
      </trkpt>
      <trkpt lat="42.66608" lon="1.74222">
        <ele>2265.699951</ele>
        <time>2018-08-19T08:38:28Z</time>
      </trkpt>
      <trkpt lat="42.666" lon="1.74215">
        <ele>2264.800049</ele>
        <time>2018-08-19T08:38:36Z</time>
      </trkpt>
      <trkpt lat="42.66591" lon="1.7421">
        <ele>2263.600098</ele>
        <time>2018-08-19T08:38:45Z</time>
      </trkpt>
      <trkpt lat="42.66582" lon="1.74207">
        <ele>2262.800049</ele>
        <time>2018-08-19T08:38:53Z</time>
      </trkpt>
      <trkpt lat="42.66573" lon="1.74202">
        <ele>2261.5</ele>
        <time>2018-08-19T08:39:01Z</time>
      </trkpt>
      <trkpt lat="42.66564" lon="1.74201">
        <ele>2260.399902</ele>
        <time>2018-08-19T08:39:11Z</time>
      </trkpt>
      <trkpt lat="42.66554" lon="1.74199">
        <ele>2259.5</ele>
        <time>2018-08-19T08:39:20Z</time>
      </trkpt>
      <trkpt lat="42.66544" lon="1.74197">
        <ele>2258.699951</ele>
        <time>2018-08-19T08:39:27Z</time>
      </trkpt>
      <trkpt lat="42.66535" lon="1.74197">
        <ele>2258</ele>
        <time>2018-08-19T08:39:36Z</time>
      </trkpt>
      <trkpt lat="42.66526" lon="1.74199">
        <ele>2257.699951</ele>
        <time>2018-08-19T08:39:44Z</time>
      </trkpt>
      <trkpt lat="42.66517" lon="1.74195">
        <ele>2257</ele>
        <time>2018-08-19T08:39:53Z</time>
      </trkpt>
      <trkpt lat="42.66508" lon="1.74191">
        <ele>2256.399902</ele>
        <time>2018-08-19T08:40:02Z</time>
      </trkpt>
      <trkpt lat="42.66498" lon="1.74193">
        <ele>2255.899902</ele>
        <time>2018-08-19T08:40:13Z</time>
      </trkpt>
      <trkpt lat="42.66489" lon="1.74193">
        <ele>2254.699951</ele>
        <time>2018-08-19T08:40:22Z</time>
      </trkpt>
      <trkpt lat="42.66479" lon="1.74191">
        <ele>2253.199951</ele>
        <time>2018-08-19T08:40:41Z</time>
      </trkpt>
      <trkpt lat="42.66471" lon="1.74186">
        <ele>2252.5</ele>
        <time>2018-08-19T08:40:50Z</time>
      </trkpt>
      <trkpt lat="42.66462" lon="1.74183">
        <ele>2251.800049</ele>
        <time>2018-08-19T08:40:58Z</time>
      </trkpt>
      <trkpt lat="42.66453" lon="1.74181">
        <ele>2251</ele>
        <time>2018-08-19T08:41:06Z</time>
      </trkpt>
      <trkpt lat="42.66443" lon="1.74181">
        <ele>2250</ele>
        <time>2018-08-19T08:41:14Z</time>
      </trkpt>
      <trkpt lat="42.66434" lon="1.74186">
        <ele>2247.800049</ele>
        <time>2018-08-19T08:41:29Z</time>
      </trkpt>
      <trkpt lat="42.66424" lon="1.74186">
        <ele>2246.600098</ele>
        <time>2018-08-19T08:41:36Z</time>
      </trkpt>
      <trkpt lat="42.66414" lon="1.74186">
        <ele>2245.300049</ele>
        <time>2018-08-19T08:41:43Z</time>
      </trkpt>
      <trkpt lat="42.66405" lon="1.74185">
        <ele>2245.5</ele>
        <time>2018-08-19T08:41:52Z</time>
      </trkpt>
      <trkpt lat="42.66396" lon="1.74184">
        <ele>2246.100098</ele>
        <time>2018-08-19T08:42:00Z</time>
      </trkpt>
      <trkpt lat="42.66386" lon="1.74186">
        <ele>2245.899902</ele>
        <time>2018-08-19T08:42:08Z</time>
      </trkpt>
      <trkpt lat="42.66376" lon="1.74184">
        <ele>2246.399902</ele>
        <time>2018-08-19T08:42:18Z</time>
      </trkpt>
      <trkpt lat="42.66367" lon="1.74184">
        <ele>2246.699951</ele>
        <time>2018-08-19T08:42:26Z</time>
      </trkpt>
      <trkpt lat="42.66358" lon="1.74184">
        <ele>2246.899902</ele>
        <time>2018-08-19T08:42:34Z</time>
      </trkpt>
      <trkpt lat="42.6635" lon="1.74191">
        <ele>2245.699951</ele>
        <time>2018-08-19T08:42:43Z</time>
      </trkpt>
      <trkpt lat="42.6634" lon="1.74194">
        <ele>2244.199951</ele>
        <time>2018-08-19T08:43:01Z</time>
      </trkpt>
      <trkpt lat="42.66331" lon="1.74193">
        <ele>2244.699951</ele>
        <time>2018-08-19T08:43:10Z</time>
      </trkpt>
      <trkpt lat="42.66322" lon="1.74196">
        <ele>2244.800049</ele>
        <time>2018-08-19T08:43:18Z</time>
      </trkpt>
      <trkpt lat="42.66313" lon="1.74201">
        <ele>2244</ele>
        <time>2018-08-19T08:43:27Z</time>
      </trkpt>
      <trkpt lat="42.66302" lon="1.74209">
        <ele>2242.899902</ele>
        <time>2018-08-19T08:44:06Z</time>
      </trkpt>
      <trkpt lat="42.66293" lon="1.74207">
        <ele>2244</ele>
        <time>2018-08-19T08:44:14Z</time>
      </trkpt>
      <trkpt lat="42.66283" lon="1.74208">
        <ele>2244.800049</ele>
        <time>2018-08-19T08:44:23Z</time>
      </trkpt>
      <trkpt lat="42.66274" lon="1.74208">
        <ele>2245.800049</ele>
        <time>2018-08-19T08:44:33Z</time>
      </trkpt>
      <trkpt lat="42.66265" lon="1.7421">
        <ele>2246.699951</ele>
        <time>2018-08-19T08:44:44Z</time>
      </trkpt>
      <trkpt lat="42.66255" lon="1.74207">
        <ele>2247.699951</ele>
        <time>2018-08-19T08:44:54Z</time>
      </trkpt>
      <trkpt lat="42.66247" lon="1.74203">
        <ele>2249.199951</ele>
        <time>2018-08-19T08:46:00Z</time>
      </trkpt>
      <trkpt lat="42.66238" lon="1.74207">
        <ele>2248.800049</ele>
        <time>2018-08-19T08:46:06Z</time>
      </trkpt>
      <trkpt lat="42.66228" lon="1.74207">
        <ele>2248.5</ele>
        <time>2018-08-19T08:46:17Z</time>
      </trkpt>
      <trkpt lat="42.66219" lon="1.7421">
        <ele>2248.300049</ele>
        <time>2018-08-19T08:46:29Z</time>
      </trkpt>
      <trkpt lat="42.6621" lon="1.74211">
        <ele>2248.199951</ele>
        <time>2018-08-19T08:46:38Z</time>
      </trkpt>
      <trkpt lat="42.662" lon="1.74212">
        <ele>2248.199951</ele>
        <time>2018-08-19T08:46:48Z</time>
      </trkpt>
      <trkpt lat="42.66191" lon="1.74217">
        <ele>2248.199951</ele>
        <time>2018-08-19T08:47:05Z</time>
      </trkpt>
      <trkpt lat="42.66181" lon="1.7422">
        <ele>2248.399902</ele>
        <time>2018-08-19T08:47:13Z</time>
      </trkpt>
      <trkpt lat="42.66172" lon="1.74221">
        <ele>2248.699951</ele>
        <time>2018-08-19T08:47:21Z</time>
      </trkpt>
      <trkpt lat="42.66162" lon="1.74218">
        <ele>2248.699951</ele>
        <time>2018-08-19T08:47:31Z</time>
      </trkpt>
      <trkpt lat="42.66152" lon="1.74215">
        <ele>2248.5</ele>
        <time>2018-08-19T08:47:41Z</time>
      </trkpt>
      <trkpt lat="42.66144" lon="1.7422">
        <ele>2248.699951</ele>
        <time>2018-08-19T08:47:52Z</time>
      </trkpt>
      <trkpt lat="42.66138" lon="1.74229">
        <ele>2250</ele>
        <time>2018-08-19T08:48:07Z</time>
      </trkpt>
      <trkpt lat="42.66139" lon="1.74242">
        <ele>2251.100098</ele>
        <time>2018-08-19T08:48:30Z</time>
      </trkpt>
      <trkpt lat="42.6613" lon="1.74248">
        <ele>2252.600098</ele>
        <time>2018-08-19T08:48:45Z</time>
      </trkpt>
      <trkpt lat="42.66121" lon="1.7425">
        <ele>2253.399902</ele>
        <time>2018-08-19T08:48:58Z</time>
      </trkpt>
      <trkpt lat="42.66112" lon="1.74244">
        <ele>2253.5</ele>
        <time>2018-08-19T08:49:12Z</time>
      </trkpt>
      <trkpt lat="42.66103" lon="1.74243">
        <ele>2253.399902</ele>
        <time>2018-08-19T08:49:21Z</time>
      </trkpt>
      <trkpt lat="42.66094" lon="1.74244">
        <ele>2253.899902</ele>
        <time>2018-08-19T08:49:31Z</time>
      </trkpt>
      <trkpt lat="42.66085" lon="1.7424">
        <ele>2253.899902</ele>
        <time>2018-08-19T08:49:41Z</time>
      </trkpt>
      <trkpt lat="42.6608" lon="1.74251">
        <ele>2255.399902</ele>
        <time>2018-08-19T08:50:00Z</time>
      </trkpt>
      <trkpt lat="42.66081" lon="1.74264">
        <ele>2253</ele>
        <time>2018-08-19T08:50:19Z</time>
      </trkpt>
      <trkpt lat="42.66072" lon="1.74264">
        <ele>2253.699951</ele>
        <time>2018-08-19T08:51:14Z</time>
      </trkpt>
      <trkpt lat="42.66063" lon="1.74268">
        <ele>2254.699951</ele>
        <time>2018-08-19T08:51:28Z</time>
      </trkpt>
      <trkpt lat="42.66054" lon="1.74269">
        <ele>2257</ele>
        <time>2018-08-19T08:51:40Z</time>
      </trkpt>
      <trkpt lat="42.66045" lon="1.74273">
        <ele>2258.699951</ele>
        <time>2018-08-19T08:51:56Z</time>
      </trkpt>
      <trkpt lat="42.66036" lon="1.74278">
        <ele>2259.199951</ele>
        <time>2018-08-19T08:52:45Z</time>
      </trkpt>
      <trkpt lat="42.66027" lon="1.74279">
        <ele>2262.600098</ele>
        <time>2018-08-19T08:54:54Z</time>
      </trkpt>
      <trkpt lat="42.66018" lon="1.74281">
        <ele>2264.199951</ele>
        <time>2018-08-19T08:55:09Z</time>
      </trkpt>
      <trkpt lat="42.66009" lon="1.74281">
        <ele>2266.800049</ele>
        <time>2018-08-19T08:55:26Z</time>
      </trkpt>
      <trkpt lat="42.65999" lon="1.74281">
        <ele>2269.199951</ele>
        <time>2018-08-19T08:55:40Z</time>
      </trkpt>
      <trkpt lat="42.6599" lon="1.74283">
        <ele>2271.600098</ele>
        <time>2018-08-19T08:55:57Z</time>
      </trkpt>
      <trkpt lat="42.65984" lon="1.74292">
        <ele>2271.699951</ele>
        <time>2018-08-19T08:56:13Z</time>
      </trkpt>
      <trkpt lat="42.65975" lon="1.74296">
        <ele>2272.5</ele>
        <time>2018-08-19T08:56:22Z</time>
      </trkpt>
      <trkpt lat="42.65967" lon="1.74303">
        <ele>2273.600098</ele>
        <time>2018-08-19T08:56:31Z</time>
      </trkpt>
      <trkpt lat="42.65958" lon="1.74306">
        <ele>2276.399902</ele>
        <time>2018-08-19T08:56:48Z</time>
      </trkpt>
      <trkpt lat="42.6595" lon="1.74312">
        <ele>2278.699951</ele>
        <time>2018-08-19T08:57:03Z</time>
      </trkpt>
      <trkpt lat="42.6594" lon="1.74317">
        <ele>2281.100098</ele>
        <time>2018-08-19T08:57:14Z</time>
      </trkpt>
      <trkpt lat="42.65932" lon="1.74322">
        <ele>2284</ele>
        <time>2018-08-19T08:57:24Z</time>
      </trkpt>
      <trkpt lat="42.65923" lon="1.74325">
        <ele>2287.300049</ele>
        <time>2018-08-19T08:57:32Z</time>
      </trkpt>
      <trkpt lat="42.65913" lon="1.74327">
        <ele>2290.100098</ele>
        <time>2018-08-19T08:57:37Z</time>
      </trkpt>
      <trkpt lat="42.65904" lon="1.74328">
        <ele>2293</ele>
        <time>2018-08-19T08:57:49Z</time>
      </trkpt>
      <trkpt lat="42.6589" lon="1.74338">
        <ele>2294</ele>
        <time>2018-08-19T08:59:24Z</time>
      </trkpt>
      <trkpt lat="42.65881" lon="1.74343">
        <ele>2295.800049</ele>
        <time>2018-08-19T08:59:38Z</time>
      </trkpt>
      <trkpt lat="42.65873" lon="1.74349">
        <ele>2295.199951</ele>
        <time>2018-08-19T08:59:46Z</time>
      </trkpt>
      <trkpt lat="42.65864" lon="1.74351">
        <ele>2295.800049</ele>
        <time>2018-08-19T09:00:06Z</time>
      </trkpt>
      <trkpt lat="42.65855" lon="1.74357">
        <ele>2296.300049</ele>
        <time>2018-08-19T09:00:18Z</time>
      </trkpt>
      <trkpt lat="42.65853" lon="1.74369">
        <ele>2293.5</ele>
        <time>2018-08-19T09:00:32Z</time>
      </trkpt>
      <trkpt lat="42.65848" lon="1.7438">
        <ele>2291</ele>
        <time>2018-08-19T09:00:41Z</time>
      </trkpt>
      <trkpt lat="42.65843" lon="1.74392">
        <ele>2288.100098</ele>
        <time>2018-08-19T09:00:50Z</time>
      </trkpt>
      <trkpt lat="42.65834" lon="1.74396">
        <ele>2287.600098</ele>
        <time>2018-08-19T09:02:23Z</time>
      </trkpt>
      <trkpt lat="42.65831" lon="1.74409">
        <ele>2285.100098</ele>
        <time>2018-08-19T09:02:33Z</time>
      </trkpt>
      <trkpt lat="42.65827" lon="1.7442">
        <ele>2282.5</ele>
        <time>2018-08-19T09:02:41Z</time>
      </trkpt>
      <trkpt lat="42.65821" lon="1.7443">
        <ele>2281.399902</ele>
        <time>2018-08-19T09:02:48Z</time>
      </trkpt>
      <trkpt lat="42.65816" lon="1.7444">
        <ele>2281.100098</ele>
        <time>2018-08-19T09:02:56Z</time>
      </trkpt>
      <trkpt lat="42.65811" lon="1.74452">
        <ele>2280.699951</ele>
        <time>2018-08-19T09:03:08Z</time>
      </trkpt>
      <trkpt lat="42.65803" lon="1.74459">
        <ele>2282.100098</ele>
        <time>2018-08-19T09:03:16Z</time>
      </trkpt>
      <trkpt lat="42.65796" lon="1.74467">
        <ele>2283.899902</ele>
        <time>2018-08-19T09:03:27Z</time>
      </trkpt>
      <trkpt lat="42.65787" lon="1.7447">
        <ele>2286.199951</ele>
        <time>2018-08-19T09:04:07Z</time>
      </trkpt>
      <trkpt lat="42.65778" lon="1.74466">
        <ele>2289.699951</ele>
        <time>2018-08-19T09:04:20Z</time>
      </trkpt>
      <trkpt lat="42.65769" lon="1.7447">
        <ele>2293.199951</ele>
        <time>2018-08-19T09:04:50Z</time>
      </trkpt>
      <trkpt lat="42.6576" lon="1.74471">
        <ele>2296.300049</ele>
        <time>2018-08-19T09:05:08Z</time>
      </trkpt>
      <trkpt lat="42.65751" lon="1.74474">
        <ele>2299.600098</ele>
        <time>2018-08-19T09:05:24Z</time>
      </trkpt>
      <trkpt lat="42.65742" lon="1.74475">
        <ele>2302.300049</ele>
        <time>2018-08-19T09:05:38Z</time>
      </trkpt>
      <trkpt lat="42.65733" lon="1.74478">
        <ele>2304.600098</ele>
        <time>2018-08-19T09:05:52Z</time>
      </trkpt>
      <trkpt lat="42.65723" lon="1.74481">
        <ele>2307.699951</ele>
        <time>2018-08-19T09:06:22Z</time>
      </trkpt>
      <trkpt lat="42.65738" lon="1.7451">
        <ele>2308</ele>
        <time>2018-08-19T09:09:03Z</time>
      </trkpt>
      <trkpt lat="42.65739" lon="1.7453">
        <ele>2312</ele>
        <time>2018-08-19T09:10:18Z</time>
      </trkpt>
      <trkpt lat="42.65732" lon="1.74539">
        <ele>2317.699951</ele>
        <time>2018-08-19T09:11:03Z</time>
      </trkpt>
      <trkpt lat="42.65724" lon="1.7455">
        <ele>2322.399902</ele>
        <time>2018-08-19T09:11:30Z</time>
      </trkpt>
      <trkpt lat="42.65726" lon="1.74561">
        <ele>2326.100098</ele>
        <time>2018-08-19T09:12:14Z</time>
      </trkpt>
      <trkpt lat="42.65727" lon="1.74574">
        <ele>2328.699951</ele>
        <time>2018-08-19T09:12:36Z</time>
      </trkpt>
      <trkpt lat="42.65723" lon="1.74585">
        <ele>2332.600098</ele>
        <time>2018-08-19T09:13:05Z</time>
      </trkpt>
      <trkpt lat="42.65715" lon="1.74592">
        <ele>2335.699951</ele>
        <time>2018-08-19T09:13:57Z</time>
      </trkpt>
      <trkpt lat="42.65708" lon="1.74599">
        <ele>2343.899902</ele>
        <time>2018-08-19T09:18:28Z</time>
      </trkpt>
      <trkpt lat="42.65698" lon="1.74592">
        <ele>2345.800049</ele>
        <time>2018-08-19T09:19:08Z</time>
      </trkpt>
      <trkpt lat="42.65691" lon="1.74586">
        <ele>2347.100098</ele>
        <time>2018-08-19T09:19:26Z</time>
      </trkpt>
      <trkpt lat="42.65685" lon="1.74596">
        <ele>2351.5</ele>
        <time>2018-08-19T09:19:56Z</time>
      </trkpt>
      <trkpt lat="42.65676" lon="1.74597">
        <ele>2356.899902</ele>
        <time>2018-08-19T09:20:16Z</time>
      </trkpt>
      <trkpt lat="42.65675" lon="1.7461">
        <ele>2362</ele>
        <time>2018-08-19T09:21:33Z</time>
      </trkpt>
      <trkpt lat="42.65666" lon="1.74606">
        <ele>2364.300049</ele>
        <time>2018-08-19T09:22:38Z</time>
      </trkpt>
      <trkpt lat="42.65668" lon="1.74619">
        <ele>2368.399902</ele>
        <time>2018-08-19T09:23:18Z</time>
      </trkpt>
      <trkpt lat="42.65674" lon="1.74629">
        <ele>2370.699951</ele>
        <time>2018-08-19T09:23:38Z</time>
      </trkpt>
      <trkpt lat="42.65665" lon="1.74629">
        <ele>2373.600098</ele>
        <time>2018-08-19T09:24:22Z</time>
      </trkpt>
      <trkpt lat="42.65662" lon="1.7464">
        <ele>2378.399902</ele>
        <time>2018-08-19T09:24:56Z</time>
      </trkpt>
      <trkpt lat="42.65671" lon="1.7464">
        <ele>2377.5</ele>
        <time>2018-08-19T09:25:09Z</time>
      </trkpt>
      <trkpt lat="42.65679" lon="1.74647">
        <ele>2375.399902</ele>
        <time>2018-08-19T09:25:24Z</time>
      </trkpt>
      <trkpt lat="42.65682" lon="1.74659">
        <ele>2376.600098</ele>
        <time>2018-08-19T09:25:35Z</time>
      </trkpt>
      <trkpt lat="42.65685" lon="1.74671">
        <ele>2379.199951</ele>
        <time>2018-08-19T09:25:47Z</time>
      </trkpt>
      <trkpt lat="42.65692" lon="1.7468">
        <ele>2377.800049</ele>
        <time>2018-08-19T09:25:56Z</time>
      </trkpt>
      <trkpt lat="42.65691" lon="1.74693">
        <ele>2379</ele>
        <time>2018-08-19T09:26:04Z</time>
      </trkpt>
      <trkpt lat="42.65695" lon="1.74705">
        <ele>2379.699951</ele>
        <time>2018-08-19T09:26:11Z</time>
      </trkpt>
      <trkpt lat="42.65703" lon="1.74714">
        <ele>2378.5</ele>
        <time>2018-08-19T09:26:20Z</time>
      </trkpt>
      <trkpt lat="42.65706" lon="1.74725">
        <ele>2378.699951</ele>
        <time>2018-08-19T09:26:32Z</time>
      </trkpt>
      <trkpt lat="42.65701" lon="1.74713">
        <ele>2377.899902</ele>
        <time>2018-08-19T09:28:13Z</time>
      </trkpt>
      <trkpt lat="42.65696" lon="1.74703">
        <ele>2379.199951</ele>
        <time>2018-08-19T09:28:24Z</time>
      </trkpt>
      <trkpt lat="42.65691" lon="1.74692">
        <ele>2379.800049</ele>
        <time>2018-08-19T09:28:34Z</time>
      </trkpt>
      <trkpt lat="42.65688" lon="1.74679">
        <ele>2379.199951</ele>
        <time>2018-08-19T09:28:44Z</time>
      </trkpt>
      <trkpt lat="42.65683" lon="1.74667">
        <ele>2379.699951</ele>
        <time>2018-08-19T09:28:55Z</time>
      </trkpt>
      <trkpt lat="42.65679" lon="1.74654">
        <ele>2377.699951</ele>
        <time>2018-08-19T09:29:08Z</time>
      </trkpt>
      <trkpt lat="42.65673" lon="1.74645">
        <ele>2377</ele>
        <time>2018-08-19T09:29:17Z</time>
      </trkpt>
      <trkpt lat="42.65666" lon="1.74638">
        <ele>2376.800049</ele>
        <time>2018-08-19T09:29:33Z</time>
      </trkpt>
      <trkpt lat="42.65667" lon="1.74636">
        <ele>2376.600098</ele>
        <time>2018-08-19T09:35:14Z</time>
      </trkpt>
      <trkpt lat="42.65685" lon="1.74634">
        <ele>2371</ele>
        <time>2018-08-19T09:36:34Z</time>
      </trkpt>
      <trkpt lat="42.6568" lon="1.74621">
        <ele>2364.699951</ele>
        <time>2018-08-19T09:36:47Z</time>
      </trkpt>
      <trkpt lat="42.65681" lon="1.74608">
        <ele>2360.199951</ele>
        <time>2018-08-19T09:37:21Z</time>
      </trkpt>
      <trkpt lat="42.65679" lon="1.74595">
        <ele>2356.5</ele>
        <time>2018-08-19T09:37:35Z</time>
      </trkpt>
      <trkpt lat="42.65681" lon="1.74584">
        <ele>2351.399902</ele>
        <time>2018-08-19T09:38:08Z</time>
      </trkpt>
      <trkpt lat="42.65691" lon="1.74562">
        <ele>2343</ele>
        <time>2018-08-19T09:38:54Z</time>
      </trkpt>
      <trkpt lat="42.65699" lon="1.74556">
        <ele>2336.899902</ele>
        <time>2018-08-19T09:39:08Z</time>
      </trkpt>
      <trkpt lat="42.65707" lon="1.74549">
        <ele>2331.699951</ele>
        <time>2018-08-19T09:39:23Z</time>
      </trkpt>
      <trkpt lat="42.65716" lon="1.74551">
        <ele>2327.899902</ele>
        <time>2018-08-19T09:39:38Z</time>
      </trkpt>
      <trkpt lat="42.65725" lon="1.74554">
        <ele>2326</ele>
        <time>2018-08-19T09:39:44Z</time>
      </trkpt>
      <trkpt lat="42.65716" lon="1.74542">
        <ele>2322.699951</ele>
        <time>2018-08-19T09:40:17Z</time>
      </trkpt>
      <trkpt lat="42.65707" lon="1.74533">
        <ele>2324.899902</ele>
        <time>2018-08-19T09:40:42Z</time>
      </trkpt>
      <trkpt lat="42.65699" lon="1.7453">
        <ele>2328.300049</ele>
        <time>2018-08-19T09:41:19Z</time>
      </trkpt>
      <trkpt lat="42.6571" lon="1.74523">
        <ele>2326.600098</ele>
        <time>2018-08-19T09:41:51Z</time>
      </trkpt>
      <trkpt lat="42.65719" lon="1.74522">
        <ele>2320.5</ele>
        <time>2018-08-19T09:42:01Z</time>
      </trkpt>
      <trkpt lat="42.65716" lon="1.7451">
        <ele>2317.5</ele>
        <time>2018-08-19T09:42:32Z</time>
      </trkpt>
      <trkpt lat="42.65728" lon="1.74507">
        <ele>2314.800049</ele>
        <time>2018-08-19T09:42:53Z</time>
      </trkpt>
      <trkpt lat="42.65724" lon="1.74494">
        <ele>2311.199951</ele>
        <time>2018-08-19T09:43:08Z</time>
      </trkpt>
      <trkpt lat="42.65722" lon="1.74482">
        <ele>2309.300049</ele>
        <time>2018-08-19T09:43:16Z</time>
      </trkpt>
      <trkpt lat="42.65715" lon="1.74473">
        <ele>2309</ele>
        <time>2018-08-19T09:43:20Z</time>
      </trkpt>
      <trkpt lat="42.6571" lon="1.74463">
        <ele>2307.5</ele>
        <time>2018-08-19T09:43:34Z</time>
      </trkpt>
      <trkpt lat="42.65711" lon="1.7446">
        <ele>2305.600098</ele>
        <time>2018-08-19T09:44:08Z</time>
      </trkpt>
      <trkpt lat="42.65722" lon="1.74456">
        <ele>2304</ele>
        <time>2018-08-19T09:44:43Z</time>
      </trkpt>
      <trkpt lat="42.65722" lon="1.74457">
        <ele>2303.5</ele>
        <time>2018-08-19T09:49:24Z</time>
      </trkpt>
      <trkpt lat="42.65714" lon="1.74452">
        <ele>2303.600098</ele>
        <time>2018-08-19T09:49:33Z</time>
      </trkpt>
      <trkpt lat="42.65705" lon="1.74447">
        <ele>2303.399902</ele>
        <time>2018-08-19T09:49:45Z</time>
      </trkpt>
      <trkpt lat="42.65691" lon="1.74445">
        <ele>2304.100098</ele>
        <time>2018-08-19T09:50:20Z</time>
      </trkpt>
      <trkpt lat="42.65682" lon="1.74444">
        <ele>2304</ele>
        <time>2018-08-19T09:50:32Z</time>
      </trkpt>
      <trkpt lat="42.6567" lon="1.74446">
        <ele>2306</ele>
        <time>2018-08-19T09:50:44Z</time>
      </trkpt>
      <trkpt lat="42.65665" lon="1.74456">
        <ele>2310.300049</ele>
        <time>2018-08-19T09:51:06Z</time>
      </trkpt>
      <trkpt lat="42.65648" lon="1.7446">
        <ele>2315</ele>
        <time>2018-08-19T09:51:28Z</time>
      </trkpt>
      <trkpt lat="42.65641" lon="1.74469">
        <ele>2320.199951</ele>
        <time>2018-08-19T09:51:44Z</time>
      </trkpt>
      <trkpt lat="42.65632" lon="1.74463">
        <ele>2320.399902</ele>
        <time>2018-08-19T09:51:54Z</time>
      </trkpt>
      <trkpt lat="42.65622" lon="1.74463">
        <ele>2321.100098</ele>
        <time>2018-08-19T09:52:07Z</time>
      </trkpt>
      <trkpt lat="42.65618" lon="1.74474">
        <ele>2327.199951</ele>
        <time>2018-08-19T09:54:15Z</time>
      </trkpt>
      <trkpt lat="42.65611" lon="1.74482">
        <ele>2333.5</ele>
        <time>2018-08-19T09:54:27Z</time>
      </trkpt>
      <trkpt lat="42.65601" lon="1.74485">
        <ele>2337.699951</ele>
        <time>2018-08-19T09:54:38Z</time>
      </trkpt>
      <trkpt lat="42.65593" lon="1.74493">
        <ele>2344.800049</ele>
        <time>2018-08-19T09:54:51Z</time>
      </trkpt>
      <trkpt lat="42.65586" lon="1.74501">
        <ele>2351.800049</ele>
        <time>2018-08-19T09:55:02Z</time>
      </trkpt>
      <trkpt lat="42.6558" lon="1.7451">
        <ele>2355.800049</ele>
        <time>2018-08-19T09:55:13Z</time>
      </trkpt>
      <trkpt lat="42.6557" lon="1.74514">
        <ele>2356.300049</ele>
        <time>2018-08-19T09:55:22Z</time>
      </trkpt>
      <trkpt lat="42.65563" lon="1.74522">
        <ele>2357.800049</ele>
        <time>2018-08-19T09:56:02Z</time>
      </trkpt>
      <trkpt lat="42.65557" lon="1.74531">
        <ele>2360</ele>
        <time>2018-08-19T09:56:13Z</time>
      </trkpt>
      <trkpt lat="42.65547" lon="1.7453">
        <ele>2359.399902</ele>
        <time>2018-08-19T09:56:26Z</time>
      </trkpt>
      <trkpt lat="42.65538" lon="1.74532">
        <ele>2358.600098</ele>
        <time>2018-08-19T09:56:40Z</time>
      </trkpt>
      <trkpt lat="42.65528" lon="1.7453">
        <ele>2357.399902</ele>
        <time>2018-08-19T09:56:59Z</time>
      </trkpt>
      <trkpt lat="42.65519" lon="1.7453">
        <ele>2356</ele>
        <time>2018-08-19T09:57:11Z</time>
      </trkpt>
      <trkpt lat="42.6551" lon="1.74536">
        <ele>2356.800049</ele>
        <time>2018-08-19T09:57:20Z</time>
      </trkpt>
      <trkpt lat="42.65502" lon="1.74542">
        <ele>2358.600098</ele>
        <time>2018-08-19T09:57:35Z</time>
      </trkpt>
      <trkpt lat="42.65495" lon="1.74549">
        <ele>2359.600098</ele>
        <time>2018-08-19T09:57:49Z</time>
      </trkpt>
      <trkpt lat="42.65484" lon="1.74551">
        <ele>2358.399902</ele>
        <time>2018-08-19T09:58:10Z</time>
      </trkpt>
      <trkpt lat="42.6548" lon="1.74562">
        <ele>2360.399902</ele>
        <time>2018-08-19T09:58:30Z</time>
      </trkpt>
      <trkpt lat="42.65471" lon="1.74567">
        <ele>2361.199951</ele>
        <time>2018-08-19T09:58:56Z</time>
      </trkpt>
      <trkpt lat="42.65462" lon="1.7457">
        <ele>2359.600098</ele>
        <time>2018-08-19T09:59:15Z</time>
      </trkpt>
      <trkpt lat="42.65453" lon="1.74572">
        <ele>2358.699951</ele>
        <time>2018-08-19T09:59:29Z</time>
      </trkpt>
      <trkpt lat="42.65443" lon="1.74573">
        <ele>2356.399902</ele>
        <time>2018-08-19T09:59:45Z</time>
      </trkpt>
      <trkpt lat="42.65435" lon="1.74568">
        <ele>2353.100098</ele>
        <time>2018-08-19T10:00:08Z</time>
      </trkpt>
      <trkpt lat="42.65425" lon="1.74569">
        <ele>2350.5</ele>
        <time>2018-08-19T10:00:19Z</time>
      </trkpt>
      <trkpt lat="42.65416" lon="1.74576">
        <ele>2350</ele>
        <time>2018-08-19T10:00:27Z</time>
      </trkpt>
      <trkpt lat="42.65407" lon="1.74582">
        <ele>2350.5</ele>
        <time>2018-08-19T10:00:31Z</time>
      </trkpt>
      <trkpt lat="42.65395" lon="1.74587">
        <ele>2350.300049</ele>
        <time>2018-08-19T10:00:35Z</time>
      </trkpt>
      <trkpt lat="42.65386" lon="1.74592">
        <ele>2348.800049</ele>
        <time>2018-08-19T10:00:40Z</time>
      </trkpt>
      <trkpt lat="42.65377" lon="1.74597">
        <ele>2346.899902</ele>
        <time>2018-08-19T10:00:49Z</time>
      </trkpt>
      <trkpt lat="42.65367" lon="1.74603">
        <ele>2345.600098</ele>
        <time>2018-08-19T10:00:55Z</time>
      </trkpt>
      <trkpt lat="42.65358" lon="1.74607">
        <ele>2344.300049</ele>
        <time>2018-08-19T10:00:59Z</time>
      </trkpt>
      <trkpt lat="42.65349" lon="1.74609">
        <ele>2342.699951</ele>
        <time>2018-08-19T10:01:05Z</time>
      </trkpt>
      <trkpt lat="42.65342" lon="1.74618">
        <ele>2340.899902</ele>
        <time>2018-08-19T10:03:54Z</time>
      </trkpt>
      <trkpt lat="42.65339" lon="1.74613">
        <ele>2340.899902</ele>
        <time>2018-08-19T10:40:19Z</time>
      </trkpt>
      <trkpt lat="42.65343" lon="1.74601">
        <ele>2341.300049</ele>
        <time>2018-08-19T11:16:38Z</time>
      </trkpt>
      <trkpt lat="42.65353" lon="1.74598">
        <ele>2342.600098</ele>
        <time>2018-08-19T11:16:48Z</time>
      </trkpt>
      <trkpt lat="42.65361" lon="1.74592">
        <ele>2343.800049</ele>
        <time>2018-08-19T11:16:54Z</time>
      </trkpt>
      <trkpt lat="42.65365" lon="1.74581">
        <ele>2345</ele>
        <time>2018-08-19T11:17:01Z</time>
      </trkpt>
      <trkpt lat="42.65372" lon="1.74574">
        <ele>2343.899902</ele>
        <time>2018-08-19T11:17:11Z</time>
      </trkpt>
      <trkpt lat="42.6538" lon="1.74568">
        <ele>2343.5</ele>
        <time>2018-08-19T11:17:21Z</time>
      </trkpt>
      <trkpt lat="42.65388" lon="1.74559">
        <ele>2342.100098</ele>
        <time>2018-08-19T11:17:31Z</time>
      </trkpt>
      <trkpt lat="42.65391" lon="1.74546">
        <ele>2339</ele>
        <time>2018-08-19T11:17:42Z</time>
      </trkpt>
      <trkpt lat="42.65393" lon="1.74534">
        <ele>2335.300049</ele>
        <time>2018-08-19T11:17:55Z</time>
      </trkpt>
      <trkpt lat="42.65389" lon="1.74522">
        <ele>2331.699951</ele>
        <time>2018-08-19T11:18:12Z</time>
      </trkpt>
      <trkpt lat="42.65382" lon="1.74514">
        <ele>2329.100098</ele>
        <time>2018-08-19T11:18:21Z</time>
      </trkpt>
      <trkpt lat="42.65375" lon="1.74505">
        <ele>2326.5</ele>
        <time>2018-08-19T11:18:30Z</time>
      </trkpt>
      <trkpt lat="42.65368" lon="1.74497">
        <ele>2323.899902</ele>
        <time>2018-08-19T11:18:40Z</time>
      </trkpt>
      <trkpt lat="42.65359" lon="1.7449">
        <ele>2321</ele>
        <time>2018-08-19T11:18:50Z</time>
      </trkpt>
      <trkpt lat="42.65351" lon="1.74483">
        <ele>2318.5</ele>
        <time>2018-08-19T11:19:02Z</time>
      </trkpt>
      <trkpt lat="42.65344" lon="1.74474">
        <ele>2315.5</ele>
        <time>2018-08-19T11:19:15Z</time>
      </trkpt>
      <trkpt lat="42.65336" lon="1.74468">
        <ele>2313.399902</ele>
        <time>2018-08-19T11:19:31Z</time>
      </trkpt>
      <trkpt lat="42.65329" lon="1.74461">
        <ele>2311.5</ele>
        <time>2018-08-19T11:19:55Z</time>
      </trkpt>
      <trkpt lat="42.65322" lon="1.74452">
        <ele>2310.899902</ele>
        <time>2018-08-19T11:20:10Z</time>
      </trkpt>
      <trkpt lat="42.65314" lon="1.74446">
        <ele>2310.899902</ele>
        <time>2018-08-19T11:20:24Z</time>
      </trkpt>
      <trkpt lat="42.65306" lon="1.74441">
        <ele>2312.100098</ele>
        <time>2018-08-19T11:20:42Z</time>
      </trkpt>
      <trkpt lat="42.65301" lon="1.7443">
        <ele>2311.199951</ele>
        <time>2018-08-19T11:22:26Z</time>
      </trkpt>
      <trkpt lat="42.65292" lon="1.74426">
        <ele>2312.600098</ele>
        <time>2018-08-19T11:22:37Z</time>
      </trkpt>
      <trkpt lat="42.65284" lon="1.7442">
        <ele>2315</ele>
        <time>2018-08-19T11:22:50Z</time>
      </trkpt>
      <trkpt lat="42.65276" lon="1.74415">
        <ele>2317.800049</ele>
        <time>2018-08-19T11:23:01Z</time>
      </trkpt>
      <trkpt lat="42.65268" lon="1.74406">
        <ele>2317</ele>
        <time>2018-08-19T11:23:13Z</time>
      </trkpt>
      <trkpt lat="42.65262" lon="1.74397">
        <ele>2315.199951</ele>
        <time>2018-08-19T11:23:26Z</time>
      </trkpt>
      <trkpt lat="42.65259" lon="1.74385">
        <ele>2311.399902</ele>
        <time>2018-08-19T11:23:38Z</time>
      </trkpt>
      <trkpt lat="42.65254" lon="1.74375">
        <ele>2308.399902</ele>
        <time>2018-08-19T11:23:48Z</time>
      </trkpt>
      <trkpt lat="42.65255" lon="1.74362">
        <ele>2303</ele>
        <time>2018-08-19T11:23:58Z</time>
      </trkpt>
      <trkpt lat="42.65253" lon="1.7435">
        <ele>2296.5</ele>
        <time>2018-08-19T11:24:12Z</time>
      </trkpt>
      <trkpt lat="42.65248" lon="1.7434">
        <ele>2293.699951</ele>
        <time>2018-08-19T11:24:23Z</time>
      </trkpt>
      <trkpt lat="42.65244" lon="1.74327">
        <ele>2289.699951</ele>
        <time>2018-08-19T11:25:16Z</time>
      </trkpt>
      <trkpt lat="42.65237" lon="1.74318">
        <ele>2291.100098</ele>
        <time>2018-08-19T11:25:40Z</time>
      </trkpt>
      <trkpt lat="42.65229" lon="1.74313">
        <ele>2293.800049</ele>
        <time>2018-08-19T11:25:53Z</time>
      </trkpt>
      <trkpt lat="42.6522" lon="1.74307">
        <ele>2296.899902</ele>
        <time>2018-08-19T11:26:03Z</time>
      </trkpt>
      <trkpt lat="42.65211" lon="1.74302">
        <ele>2300.600098</ele>
        <time>2018-08-19T11:26:17Z</time>
      </trkpt>
      <trkpt lat="42.6519" lon="1.74275">
        <ele>2302</ele>
        <time>2018-08-19T11:28:49Z</time>
      </trkpt>
      <trkpt lat="42.65181" lon="1.74271">
        <ele>2306.699951</ele>
        <time>2018-08-19T11:29:06Z</time>
      </trkpt>
      <trkpt lat="42.65173" lon="1.74263">
        <ele>2307.899902</ele>
        <time>2018-08-19T11:29:19Z</time>
      </trkpt>
      <trkpt lat="42.65165" lon="1.74259">
        <ele>2310.699951</ele>
        <time>2018-08-19T11:29:28Z</time>
      </trkpt>
      <trkpt lat="42.65158" lon="1.7425">
        <ele>2310</ele>
        <time>2018-08-19T11:29:41Z</time>
      </trkpt>
      <trkpt lat="42.65153" lon="1.7424">
        <ele>2308.600098</ele>
        <time>2018-08-19T11:29:49Z</time>
      </trkpt>
      <trkpt lat="42.65153" lon="1.74227">
        <ele>2303.5</ele>
        <time>2018-08-19T11:30:55Z</time>
      </trkpt>
      <trkpt lat="42.65146" lon="1.74218">
        <ele>2303.300049</ele>
        <time>2018-08-19T11:31:03Z</time>
      </trkpt>
      <trkpt lat="42.65142" lon="1.74205">
        <ele>2302.100098</ele>
        <time>2018-08-19T11:31:12Z</time>
      </trkpt>
      <trkpt lat="42.65141" lon="1.74193">
        <ele>2298.300049</ele>
        <time>2018-08-19T11:31:21Z</time>
      </trkpt>
      <trkpt lat="42.65139" lon="1.74181">
        <ele>2294.399902</ele>
        <time>2018-08-19T11:32:15Z</time>
      </trkpt>
      <trkpt lat="42.65136" lon="1.74169">
        <ele>2292.699951</ele>
        <time>2018-08-19T11:32:38Z</time>
      </trkpt>
      <trkpt lat="42.65135" lon="1.74156">
        <ele>2291</ele>
        <time>2018-08-19T11:32:58Z</time>
      </trkpt>
      <trkpt lat="42.65132" lon="1.74145">
        <ele>2289.399902</ele>
        <time>2018-08-19T11:33:07Z</time>
      </trkpt>
      <trkpt lat="42.65127" lon="1.74134">
        <ele>2289.399902</ele>
        <time>2018-08-19T11:33:39Z</time>
      </trkpt>
      <trkpt lat="42.65121" lon="1.74123">
        <ele>2290.600098</ele>
        <time>2018-08-19T11:33:49Z</time>
      </trkpt>
      <trkpt lat="42.65116" lon="1.74113">
        <ele>2291.899902</ele>
        <time>2018-08-19T11:33:58Z</time>
      </trkpt>
      <trkpt lat="42.65108" lon="1.74104">
        <ele>2294.5</ele>
        <time>2018-08-19T11:34:07Z</time>
      </trkpt>
      <trkpt lat="42.65104" lon="1.74091">
        <ele>2295.800049</ele>
        <time>2018-08-19T11:34:16Z</time>
      </trkpt>
      <trkpt lat="42.65099" lon="1.7408">
        <ele>2296.899902</ele>
        <time>2018-08-19T11:34:24Z</time>
      </trkpt>
      <trkpt lat="42.65095" lon="1.74069">
        <ele>2298</ele>
        <time>2018-08-19T11:34:39Z</time>
      </trkpt>
      <trkpt lat="42.6509" lon="1.74059">
        <ele>2298.899902</ele>
        <time>2018-08-19T11:34:53Z</time>
      </trkpt>
      <trkpt lat="42.65087" lon="1.74047">
        <ele>2299.300049</ele>
        <time>2018-08-19T11:35:04Z</time>
      </trkpt>
      <trkpt lat="42.65082" lon="1.74036">
        <ele>2299.399902</ele>
        <time>2018-08-19T11:35:24Z</time>
      </trkpt>
      <trkpt lat="42.65077" lon="1.74025">
        <ele>2299</ele>
        <time>2018-08-19T11:35:34Z</time>
      </trkpt>
      <trkpt lat="42.65071" lon="1.74015">
        <ele>2298.800049</ele>
        <time>2018-08-19T11:35:55Z</time>
      </trkpt>
      <trkpt lat="42.65067" lon="1.74004">
        <ele>2299.100098</ele>
        <time>2018-08-19T11:36:07Z</time>
      </trkpt>
      <trkpt lat="42.65063" lon="1.73993">
        <ele>2298.699951</ele>
        <time>2018-08-19T11:36:19Z</time>
      </trkpt>
      <trkpt lat="42.65056" lon="1.73983">
        <ele>2299.199951</ele>
        <time>2018-08-19T11:36:37Z</time>
      </trkpt>
      <trkpt lat="42.6505" lon="1.73974">
        <ele>2300.199951</ele>
        <time>2018-08-19T11:36:48Z</time>
      </trkpt>
      <trkpt lat="42.65043" lon="1.73966">
        <ele>2302</ele>
        <time>2018-08-19T11:36:58Z</time>
      </trkpt>
      <trkpt lat="42.65036" lon="1.73957">
        <ele>2303.600098</ele>
        <time>2018-08-19T11:37:06Z</time>
      </trkpt>
      <trkpt lat="42.65027" lon="1.73951">
        <ele>2306.899902</ele>
        <time>2018-08-19T11:37:16Z</time>
      </trkpt>
      <trkpt lat="42.65018" lon="1.73947">
        <ele>2310.899902</ele>
        <time>2018-08-19T11:37:27Z</time>
      </trkpt>
      <trkpt lat="42.6501" lon="1.73941">
        <ele>2314.5</ele>
        <time>2018-08-19T11:37:37Z</time>
      </trkpt>
      <trkpt lat="42.65001" lon="1.73935">
        <ele>2318.399902</ele>
        <time>2018-08-19T11:37:47Z</time>
      </trkpt>
      <trkpt lat="42.64992" lon="1.7393">
        <ele>2320.199951</ele>
        <time>2018-08-19T11:37:56Z</time>
      </trkpt>
      <trkpt lat="42.64982" lon="1.73928">
        <ele>2321.100098</ele>
        <time>2018-08-19T11:38:06Z</time>
      </trkpt>
      <trkpt lat="42.64974" lon="1.73924">
        <ele>2321.699951</ele>
        <time>2018-08-19T11:38:16Z</time>
      </trkpt>
      <trkpt lat="42.64964" lon="1.73922">
        <ele>2322.600098</ele>
        <time>2018-08-19T11:38:25Z</time>
      </trkpt>
      <trkpt lat="42.64956" lon="1.73915">
        <ele>2323</ele>
        <time>2018-08-19T11:38:36Z</time>
      </trkpt>
      <trkpt lat="42.64946" lon="1.73911">
        <ele>2322.199951</ele>
        <time>2018-08-19T11:38:47Z</time>
      </trkpt>
      <trkpt lat="42.64939" lon="1.73905">
        <ele>2319.899902</ele>
        <time>2018-08-19T11:38:57Z</time>
      </trkpt>
      <trkpt lat="42.64929" lon="1.73903">
        <ele>2319.600098</ele>
        <time>2018-08-19T11:39:06Z</time>
      </trkpt>
      <trkpt lat="42.64923" lon="1.73893">
        <ele>2315.899902</ele>
        <time>2018-08-19T11:39:20Z</time>
      </trkpt>
      <trkpt lat="42.64915" lon="1.73886">
        <ele>2312.800049</ele>
        <time>2018-08-19T11:39:29Z</time>
      </trkpt>
      <trkpt lat="42.64907" lon="1.73881">
        <ele>2309.300049</ele>
        <time>2018-08-19T11:39:39Z</time>
      </trkpt>
      <trkpt lat="42.64897" lon="1.73875">
        <ele>2304.800049</ele>
        <time>2018-08-19T11:39:53Z</time>
      </trkpt>
      <trkpt lat="42.6489" lon="1.73866">
        <ele>2300.199951</ele>
        <time>2018-08-19T11:40:06Z</time>
      </trkpt>
      <trkpt lat="42.64881" lon="1.73865">
        <ele>2298.600098</ele>
        <time>2018-08-19T11:40:16Z</time>
      </trkpt>
      <trkpt lat="42.64873" lon="1.73858">
        <ele>2295.899902</ele>
        <time>2018-08-19T11:40:26Z</time>
      </trkpt>
      <trkpt lat="42.64864" lon="1.73854">
        <ele>2293.699951</ele>
        <time>2018-08-19T11:40:37Z</time>
      </trkpt>
      <trkpt lat="42.64855" lon="1.7385">
        <ele>2292.100098</ele>
        <time>2018-08-19T11:40:50Z</time>
      </trkpt>
      <trkpt lat="42.64846" lon="1.73847">
        <ele>2291.399902</ele>
        <time>2018-08-19T11:41:00Z</time>
      </trkpt>
      <trkpt lat="42.64836" lon="1.73846">
        <ele>2290.899902</ele>
        <time>2018-08-19T11:41:14Z</time>
      </trkpt>
      <trkpt lat="42.64827" lon="1.73843">
        <ele>2290.199951</ele>
        <time>2018-08-19T11:41:25Z</time>
      </trkpt>
      <trkpt lat="42.64818" lon="1.73839">
        <ele>2288.899902</ele>
        <time>2018-08-19T11:41:41Z</time>
      </trkpt>
      <trkpt lat="42.6481" lon="1.73835">
        <ele>2287.899902</ele>
        <time>2018-08-19T11:41:52Z</time>
      </trkpt>
      <trkpt lat="42.64801" lon="1.7383">
        <ele>2286.100098</ele>
        <time>2018-08-19T11:42:02Z</time>
      </trkpt>
      <trkpt lat="42.64789" lon="1.73819">
        <ele>2281.899902</ele>
        <time>2018-08-19T11:43:19Z</time>
      </trkpt>
      <trkpt lat="42.64781" lon="1.73812">
        <ele>2277.199951</ele>
        <time>2018-08-19T11:43:29Z</time>
      </trkpt>
      <trkpt lat="42.64772" lon="1.73807">
        <ele>2274.699951</ele>
        <time>2018-08-19T11:43:35Z</time>
      </trkpt>
      <trkpt lat="42.64764" lon="1.73801">
        <ele>2271.600098</ele>
        <time>2018-08-19T11:43:42Z</time>
      </trkpt>
      <trkpt lat="42.64758" lon="1.73792">
        <ele>2267.600098</ele>
        <time>2018-08-19T11:43:57Z</time>
      </trkpt>
      <trkpt lat="42.6475" lon="1.73784">
        <ele>2263.600098</ele>
        <time>2018-08-19T11:44:07Z</time>
      </trkpt>
      <trkpt lat="42.64743" lon="1.73775">
        <ele>2260.300049</ele>
        <time>2018-08-19T11:44:14Z</time>
      </trkpt>
      <trkpt lat="42.64735" lon="1.73766">
        <ele>2256.199951</ele>
        <time>2018-08-19T11:44:26Z</time>
      </trkpt>
      <trkpt lat="42.64728" lon="1.73757">
        <ele>2253</ele>
        <time>2018-08-19T11:44:36Z</time>
      </trkpt>
      <trkpt lat="42.64722" lon="1.73747">
        <ele>2250.100098</ele>
        <time>2018-08-19T11:44:46Z</time>
      </trkpt>
      <trkpt lat="42.64713" lon="1.73741">
        <ele>2247.800049</ele>
        <time>2018-08-19T11:44:55Z</time>
      </trkpt>
      <trkpt lat="42.64707" lon="1.73731">
        <ele>2245.199951</ele>
        <time>2018-08-19T11:45:09Z</time>
      </trkpt>
      <trkpt lat="42.647" lon="1.73722">
        <ele>2242.899902</ele>
        <time>2018-08-19T11:45:28Z</time>
      </trkpt>
      <trkpt lat="42.64693" lon="1.73714">
        <ele>2241.199951</ele>
        <time>2018-08-19T11:45:34Z</time>
      </trkpt>
      <trkpt lat="42.64687" lon="1.73703">
        <ele>2238.699951</ele>
        <time>2018-08-19T11:45:46Z</time>
      </trkpt>
      <trkpt lat="42.6468" lon="1.73693">
        <ele>2236.600098</ele>
        <time>2018-08-19T11:45:59Z</time>
      </trkpt>
      <trkpt lat="42.64672" lon="1.73687">
        <ele>2236.300049</ele>
        <time>2018-08-19T11:46:09Z</time>
      </trkpt>
      <trkpt lat="42.64663" lon="1.73681">
        <ele>2237</ele>
        <time>2018-08-19T11:46:19Z</time>
      </trkpt>
      <trkpt lat="42.64654" lon="1.73674">
        <ele>2238</ele>
        <time>2018-08-19T11:46:30Z</time>
      </trkpt>
      <trkpt lat="42.64648" lon="1.73666">
        <ele>2238.399902</ele>
        <time>2018-08-19T11:46:41Z</time>
      </trkpt>
      <trkpt lat="42.6464" lon="1.73658">
        <ele>2239.100098</ele>
        <time>2018-08-19T11:46:53Z</time>
      </trkpt>
      <trkpt lat="42.64631" lon="1.73651">
        <ele>2240.399902</ele>
        <time>2018-08-19T11:47:00Z</time>
      </trkpt>
      <trkpt lat="42.64623" lon="1.73643">
        <ele>2241.399902</ele>
        <time>2018-08-19T11:47:10Z</time>
      </trkpt>
      <trkpt lat="42.64616" lon="1.73634">
        <ele>2241.899902</ele>
        <time>2018-08-19T11:47:26Z</time>
      </trkpt>
      <trkpt lat="42.64608" lon="1.73626">
        <ele>2243.199951</ele>
        <time>2018-08-19T11:47:35Z</time>
      </trkpt>
      <trkpt lat="42.64599" lon="1.73623">
        <ele>2245.5</ele>
        <time>2018-08-19T11:47:48Z</time>
      </trkpt>
      <trkpt lat="42.6459" lon="1.73628">
        <ele>2249.699951</ele>
        <time>2018-08-19T11:48:05Z</time>
      </trkpt>
      <trkpt lat="42.64581" lon="1.73632">
        <ele>2253</ele>
        <time>2018-08-19T11:48:13Z</time>
      </trkpt>
      <trkpt lat="42.64572" lon="1.73633">
        <ele>2253.800049</ele>
        <time>2018-08-19T11:48:22Z</time>
      </trkpt>
      <trkpt lat="42.64563" lon="1.73635">
        <ele>2253.600098</ele>
        <time>2018-08-19T11:48:31Z</time>
      </trkpt>
      <trkpt lat="42.64554" lon="1.73638">
        <ele>2253.899902</ele>
        <time>2018-08-19T11:48:43Z</time>
      </trkpt>
      <trkpt lat="42.64545" lon="1.73638">
        <ele>2253.5</ele>
        <time>2018-08-19T11:48:50Z</time>
      </trkpt>
      <trkpt lat="42.64535" lon="1.73638">
        <ele>2253</ele>
        <time>2018-08-19T11:48:57Z</time>
      </trkpt>
      <trkpt lat="42.64527" lon="1.73643">
        <ele>2253</ele>
        <time>2018-08-19T11:51:27Z</time>
      </trkpt>
      <trkpt lat="42.64519" lon="1.7365">
        <ele>2253.5</ele>
        <time>2018-08-19T11:51:35Z</time>
      </trkpt>
      <trkpt lat="42.6451" lon="1.73656">
        <ele>2253.699951</ele>
        <time>2018-08-19T11:51:43Z</time>
      </trkpt>
      <trkpt lat="42.64501" lon="1.73661">
        <ele>2253.5</ele>
        <time>2018-08-19T11:51:52Z</time>
      </trkpt>
      <trkpt lat="42.64493" lon="1.73666">
        <ele>2253.399902</ele>
        <time>2018-08-19T11:52:05Z</time>
      </trkpt>
      <trkpt lat="42.64485" lon="1.73674">
        <ele>2251.800049</ele>
        <time>2018-08-19T11:52:22Z</time>
      </trkpt>
      <trkpt lat="42.64476" lon="1.73672">
        <ele>2251.600098</ele>
        <time>2018-08-19T11:52:35Z</time>
      </trkpt>
      <trkpt lat="42.64467" lon="1.7367">
        <ele>2251.600098</ele>
        <time>2018-08-19T11:52:46Z</time>
      </trkpt>
      <trkpt lat="42.64459" lon="1.73677">
        <ele>2250.600098</ele>
        <time>2018-08-19T11:53:08Z</time>
      </trkpt>
      <trkpt lat="42.64452" lon="1.73686">
        <ele>2249.300049</ele>
        <time>2018-08-19T11:53:24Z</time>
      </trkpt>
      <trkpt lat="42.64445" lon="1.73694">
        <ele>2248.399902</ele>
        <time>2018-08-19T11:53:39Z</time>
      </trkpt>
      <trkpt lat="42.64438" lon="1.73702">
        <ele>2248.199951</ele>
        <time>2018-08-19T11:53:50Z</time>
      </trkpt>
      <trkpt lat="42.64431" lon="1.73712">
        <ele>2248.199951</ele>
        <time>2018-08-19T11:54:01Z</time>
      </trkpt>
      <trkpt lat="42.64424" lon="1.7372">
        <ele>2248.600098</ele>
        <time>2018-08-19T11:54:14Z</time>
      </trkpt>
      <trkpt lat="42.64418" lon="1.73731">
        <ele>2249.300049</ele>
        <time>2018-08-19T11:54:27Z</time>
      </trkpt>
      <trkpt lat="42.64413" lon="1.73742">
        <ele>2251</ele>
        <time>2018-08-19T11:54:43Z</time>
      </trkpt>
      <trkpt lat="42.64409" lon="1.73753">
        <ele>2252.600098</ele>
        <time>2018-08-19T11:55:03Z</time>
      </trkpt>
      <trkpt lat="42.64401" lon="1.7376">
        <ele>2254.399902</ele>
        <time>2018-08-19T11:55:21Z</time>
      </trkpt>
      <trkpt lat="42.64392" lon="1.73759">
        <ele>2257.899902</ele>
        <time>2018-08-19T11:55:32Z</time>
      </trkpt>
      <trkpt lat="42.64385" lon="1.73767">
        <ele>2261</ele>
        <time>2018-08-19T11:56:38Z</time>
      </trkpt>
      <trkpt lat="42.64379" lon="1.73777">
        <ele>2261.899902</ele>
        <time>2018-08-19T11:56:53Z</time>
      </trkpt>
      <trkpt lat="42.6437" lon="1.7378">
        <ele>2265.100098</ele>
        <time>2018-08-19T11:57:32Z</time>
      </trkpt>
      <trkpt lat="42.64359" lon="1.73779">
        <ele>2268.899902</ele>
        <time>2018-08-19T11:58:02Z</time>
      </trkpt>
      <trkpt lat="42.64351" lon="1.73784">
        <ele>2273.5</ele>
        <time>2018-08-19T11:58:18Z</time>
      </trkpt>
      <trkpt lat="42.6433" lon="1.73789">
        <ele>2280</ele>
        <time>2018-08-19T12:01:14Z</time>
      </trkpt>
      <trkpt lat="42.64316" lon="1.73801">
        <ele>2286</ele>
        <time>2018-08-19T12:02:05Z</time>
      </trkpt>
      <trkpt lat="42.64306" lon="1.73801">
        <ele>2289.100098</ele>
        <time>2018-08-19T12:03:01Z</time>
      </trkpt>
      <trkpt lat="42.64297" lon="1.73802">
        <ele>2293.5</ele>
        <time>2018-08-19T12:05:28Z</time>
      </trkpt>
      <trkpt lat="42.6429" lon="1.73796">
        <ele>2296.5</ele>
        <time>2018-08-19T12:06:47Z</time>
      </trkpt>
      <trkpt lat="42.64283" lon="1.73788">
        <ele>2299.199951</ele>
        <time>2018-08-19T12:08:21Z</time>
      </trkpt>
      <trkpt lat="42.64269" lon="1.73783">
        <ele>2303.399902</ele>
        <time>2018-08-19T12:11:20Z</time>
      </trkpt>
      <trkpt lat="42.64261" lon="1.73786">
        <ele>2307.600098</ele>
        <time>2018-08-19T12:11:48Z</time>
      </trkpt>
      <trkpt lat="42.64252" lon="1.7379">
        <ele>2310.800049</ele>
        <time>2018-08-19T12:13:31Z</time>
      </trkpt>
      <trkpt lat="42.64243" lon="1.73791">
        <ele>2314.100098</ele>
        <time>2018-08-19T12:14:25Z</time>
      </trkpt>
      <trkpt lat="42.64234" lon="1.73786">
        <ele>2318.699951</ele>
        <time>2018-08-19T12:14:37Z</time>
      </trkpt>
      <trkpt lat="42.64224" lon="1.73784">
        <ele>2323</ele>
        <time>2018-08-19T12:14:49Z</time>
      </trkpt>
      <trkpt lat="42.64215" lon="1.73783">
        <ele>2327.600098</ele>
        <time>2018-08-19T12:15:01Z</time>
      </trkpt>
      <trkpt lat="42.64206" lon="1.73779">
        <ele>2331.800049</ele>
        <time>2018-08-19T12:15:09Z</time>
      </trkpt>
      <trkpt lat="42.64197" lon="1.73785">
        <ele>2336.800049</ele>
        <time>2018-08-19T12:15:25Z</time>
      </trkpt>
      <trkpt lat="42.6419" lon="1.73777">
        <ele>2340.399902</ele>
        <time>2018-08-19T12:15:45Z</time>
      </trkpt>
      <trkpt lat="42.64185" lon="1.73787">
        <ele>2343.399902</ele>
        <time>2018-08-19T12:16:07Z</time>
      </trkpt>
      <trkpt lat="42.64175" lon="1.7379">
        <ele>2346.899902</ele>
        <time>2018-08-19T12:16:25Z</time>
      </trkpt>
      <trkpt lat="42.64166" lon="1.73793">
        <ele>2351.300049</ele>
        <time>2018-08-19T12:16:40Z</time>
      </trkpt>
      <trkpt lat="42.64157" lon="1.73791">
        <ele>2354.800049</ele>
        <time>2018-08-19T12:21:34Z</time>
      </trkpt>
      <trkpt lat="42.6415" lon="1.73783">
        <ele>2357.600098</ele>
        <time>2018-08-19T12:21:41Z</time>
      </trkpt>
      <trkpt lat="42.64143" lon="1.73773">
        <ele>2361.199951</ele>
        <time>2018-08-19T12:21:49Z</time>
      </trkpt>
      <trkpt lat="42.64141" lon="1.73759">
        <ele>2363.800049</ele>
        <time>2018-08-19T12:22:19Z</time>
      </trkpt>
      <trkpt lat="42.64137" lon="1.73748">
        <ele>2365.899902</ele>
        <time>2018-08-19T12:22:31Z</time>
      </trkpt>
      <trkpt lat="42.64133" lon="1.73736">
        <ele>2365.100098</ele>
        <time>2018-08-19T12:22:39Z</time>
      </trkpt>
      <trkpt lat="42.64131" lon="1.73724">
        <ele>2362.699951</ele>
        <time>2018-08-19T12:22:50Z</time>
      </trkpt>
      <trkpt lat="42.64128" lon="1.73712">
        <ele>2360.699951</ele>
        <time>2018-08-19T12:23:03Z</time>
      </trkpt>
      <trkpt lat="42.64124" lon="1.737">
        <ele>2358.899902</ele>
        <time>2018-08-19T12:23:38Z</time>
      </trkpt>
      <trkpt lat="42.64121" lon="1.73687">
        <ele>2357.300049</ele>
        <time>2018-08-19T12:23:53Z</time>
      </trkpt>
      <trkpt lat="42.64118" lon="1.73674">
        <ele>2356</ele>
        <time>2018-08-19T12:24:01Z</time>
      </trkpt>
      <trkpt lat="42.64112" lon="1.73664">
        <ele>2355.899902</ele>
        <time>2018-08-19T12:24:08Z</time>
      </trkpt>
      <trkpt lat="42.64114" lon="1.73651">
        <ele>2353.399902</ele>
        <time>2018-08-19T12:24:15Z</time>
      </trkpt>
      <trkpt lat="42.64112" lon="1.73638">
        <ele>2351.100098</ele>
        <time>2018-08-19T12:24:23Z</time>
      </trkpt>
      <trkpt lat="42.64112" lon="1.73625">
        <ele>2348</ele>
        <time>2018-08-19T12:24:31Z</time>
      </trkpt>
      <trkpt lat="42.64111" lon="1.73612">
        <ele>2345.399902</ele>
        <time>2018-08-19T12:24:39Z</time>
      </trkpt>
      <trkpt lat="42.64112" lon="1.736">
        <ele>2342.600098</ele>
        <time>2018-08-19T12:24:46Z</time>
      </trkpt>
      <trkpt lat="42.64111" lon="1.73588">
        <ele>2340.300049</ele>
        <time>2018-08-19T12:24:53Z</time>
      </trkpt>
      <trkpt lat="42.64114" lon="1.73574">
        <ele>2336.100098</ele>
        <time>2018-08-19T12:25:01Z</time>
      </trkpt>
      <trkpt lat="42.64119" lon="1.73563">
        <ele>2331.199951</ele>
        <time>2018-08-19T12:25:09Z</time>
      </trkpt>
      <trkpt lat="42.64122" lon="1.7355">
        <ele>2326.399902</ele>
        <time>2018-08-19T12:25:18Z</time>
      </trkpt>
      <trkpt lat="42.64126" lon="1.73538">
        <ele>2322.199951</ele>
        <time>2018-08-19T12:25:26Z</time>
      </trkpt>
      <trkpt lat="42.64129" lon="1.73526">
        <ele>2317.399902</ele>
        <time>2018-08-19T12:25:35Z</time>
      </trkpt>
      <trkpt lat="42.64127" lon="1.73513">
        <ele>2315.399902</ele>
        <time>2018-08-19T12:25:44Z</time>
      </trkpt>
      <trkpt lat="42.64127" lon="1.735">
        <ele>2313.100098</ele>
        <time>2018-08-19T12:25:51Z</time>
      </trkpt>
      <trkpt lat="42.64125" lon="1.73487">
        <ele>2311.199951</ele>
        <time>2018-08-19T12:25:59Z</time>
      </trkpt>
      <trkpt lat="42.64118" lon="1.73476">
        <ele>2311.600098</ele>
        <time>2018-08-19T12:26:07Z</time>
      </trkpt>
      <trkpt lat="42.64111" lon="1.73467">
        <ele>2313.199951</ele>
        <time>2018-08-19T12:26:14Z</time>
      </trkpt>
      <trkpt lat="42.64107" lon="1.73456">
        <ele>2313.699951</ele>
        <time>2018-08-19T12:26:20Z</time>
      </trkpt>
      <trkpt lat="42.64104" lon="1.73443">
        <ele>2312.699951</ele>
        <time>2018-08-19T12:26:27Z</time>
      </trkpt>
      <trkpt lat="42.64098" lon="1.73432">
        <ele>2312.899902</ele>
        <time>2018-08-19T12:26:36Z</time>
      </trkpt>
      <trkpt lat="42.64088" lon="1.7343">
        <ele>2315.899902</ele>
        <time>2018-08-19T12:26:46Z</time>
      </trkpt>
      <trkpt lat="42.64082" lon="1.7342">
        <ele>2317.199951</ele>
        <time>2018-08-19T12:26:53Z</time>
      </trkpt>
      <trkpt lat="42.64085" lon="1.73406">
        <ele>2315.399902</ele>
        <time>2018-08-19T12:26:59Z</time>
      </trkpt>
      <trkpt lat="42.64087" lon="1.73393">
        <ele>2313.300049</ele>
        <time>2018-08-19T12:27:06Z</time>
      </trkpt>
      <trkpt lat="42.64091" lon="1.73381">
        <ele>2311.399902</ele>
        <time>2018-08-19T12:27:11Z</time>
      </trkpt>
      <trkpt lat="42.64097" lon="1.73369">
        <ele>2308.199951</ele>
        <time>2018-08-19T12:27:18Z</time>
      </trkpt>
      <trkpt lat="42.64102" lon="1.73358">
        <ele>2305.5</ele>
        <time>2018-08-19T12:27:25Z</time>
      </trkpt>
      <trkpt lat="42.64104" lon="1.73345">
        <ele>2303.100098</ele>
        <time>2018-08-19T12:27:34Z</time>
      </trkpt>
      <trkpt lat="42.64113" lon="1.73339">
        <ele>2301.100098</ele>
        <time>2018-08-19T12:27:43Z</time>
      </trkpt>
      <trkpt lat="42.64122" lon="1.73333">
        <ele>2297.800049</ele>
        <time>2018-08-19T12:27:52Z</time>
      </trkpt>
      <trkpt lat="42.6413" lon="1.73325">
        <ele>2295.199951</ele>
        <time>2018-08-19T12:28:01Z</time>
      </trkpt>
      <trkpt lat="42.64136" lon="1.73314">
        <ele>2293.600098</ele>
        <time>2018-08-19T12:28:08Z</time>
      </trkpt>
      <trkpt lat="42.64145" lon="1.73307">
        <ele>2292.399902</ele>
        <time>2018-08-19T12:28:16Z</time>
      </trkpt>
      <trkpt lat="42.64145" lon="1.73294">
        <ele>2291.899902</ele>
        <time>2018-08-19T12:28:24Z</time>
      </trkpt>
      <trkpt lat="42.64146" lon="1.73281">
        <ele>2292.699951</ele>
        <time>2018-08-19T12:28:32Z</time>
      </trkpt>
      <trkpt lat="42.64146" lon="1.73268">
        <ele>2293.399902</ele>
        <time>2018-08-19T12:28:40Z</time>
      </trkpt>
      <trkpt lat="42.64156" lon="1.7327">
        <ele>2293</ele>
        <time>2018-08-19T12:29:05Z</time>
      </trkpt>
      <trkpt lat="42.64165" lon="1.73273">
        <ele>2291.100098</ele>
        <time>2018-08-19T12:29:13Z</time>
      </trkpt>
      <trkpt lat="42.64166" lon="1.73261">
        <ele>2291.5</ele>
        <time>2018-08-19T12:33:17Z</time>
      </trkpt>
      <trkpt lat="42.64162" lon="1.73249">
        <ele>2293.100098</ele>
        <time>2018-08-19T12:33:27Z</time>
      </trkpt>
      <trkpt lat="42.6416" lon="1.73237">
        <ele>2294.300049</ele>
        <time>2018-08-19T12:34:11Z</time>
      </trkpt>
      <trkpt lat="42.64157" lon="1.73225">
        <ele>2295.300049</ele>
        <time>2018-08-19T12:34:19Z</time>
      </trkpt>
      <trkpt lat="42.64153" lon="1.73213">
        <ele>2296.100098</ele>
        <time>2018-08-19T12:34:26Z</time>
      </trkpt>
      <trkpt lat="42.64149" lon="1.73202">
        <ele>2296.800049</ele>
        <time>2018-08-19T12:34:34Z</time>
      </trkpt>
      <trkpt lat="42.64145" lon="1.7319">
        <ele>2297.399902</ele>
        <time>2018-08-19T12:34:43Z</time>
      </trkpt>
      <trkpt lat="42.64143" lon="1.73178">
        <ele>2297.800049</ele>
        <time>2018-08-19T12:34:52Z</time>
      </trkpt>
      <trkpt lat="42.64138" lon="1.73167">
        <ele>2297.899902</ele>
        <time>2018-08-19T12:35:03Z</time>
      </trkpt>
      <trkpt lat="42.64132" lon="1.73157">
        <ele>2296.899902</ele>
        <time>2018-08-19T12:35:11Z</time>
      </trkpt>
      <trkpt lat="42.64132" lon="1.73144">
        <ele>2295.399902</ele>
        <time>2018-08-19T12:35:21Z</time>
      </trkpt>
      <trkpt lat="42.64131" lon="1.73131">
        <ele>2293.899902</ele>
        <time>2018-08-19T12:35:30Z</time>
      </trkpt>
      <trkpt lat="42.64129" lon="1.73119">
        <ele>2292.300049</ele>
        <time>2018-08-19T12:35:49Z</time>
      </trkpt>
      <trkpt lat="42.64126" lon="1.73107">
        <ele>2290.699951</ele>
        <time>2018-08-19T12:35:59Z</time>
      </trkpt>
      <trkpt lat="42.64123" lon="1.73095">
        <ele>2289.199951</ele>
        <time>2018-08-19T12:36:07Z</time>
      </trkpt>
      <trkpt lat="42.6412" lon="1.73082">
        <ele>2287.600098</ele>
        <time>2018-08-19T12:36:15Z</time>
      </trkpt>
      <trkpt lat="42.6412" lon="1.73069">
        <ele>2285.800049</ele>
        <time>2018-08-19T12:36:24Z</time>
      </trkpt>
      <trkpt lat="42.64121" lon="1.73056">
        <ele>2284.100098</ele>
        <time>2018-08-19T12:36:32Z</time>
      </trkpt>
      <trkpt lat="42.6412" lon="1.73043">
        <ele>2282.399902</ele>
        <time>2018-08-19T12:36:41Z</time>
      </trkpt>
      <trkpt lat="42.64115" lon="1.73032">
        <ele>2280.899902</ele>
        <time>2018-08-19T12:36:51Z</time>
      </trkpt>
      <trkpt lat="42.64108" lon="1.73023">
        <ele>2279.699951</ele>
        <time>2018-08-19T12:37:02Z</time>
      </trkpt>
      <trkpt lat="42.64102" lon="1.73012">
        <ele>2278.699951</ele>
        <time>2018-08-19T12:37:12Z</time>
      </trkpt>
      <trkpt lat="42.64098" lon="1.73001">
        <ele>2277.699951</ele>
        <time>2018-08-19T12:37:22Z</time>
      </trkpt>
      <trkpt lat="42.64093" lon="1.72989">
        <ele>2276.300049</ele>
        <time>2018-08-19T12:37:30Z</time>
      </trkpt>
      <trkpt lat="42.6409" lon="1.72976">
        <ele>2274.600098</ele>
        <time>2018-08-19T12:37:39Z</time>
      </trkpt>
      <trkpt lat="42.64086" lon="1.72964">
        <ele>2272.699951</ele>
        <time>2018-08-19T12:37:48Z</time>
      </trkpt>
      <trkpt lat="42.64081" lon="1.72954">
        <ele>2271</ele>
        <time>2018-08-19T12:37:57Z</time>
      </trkpt>
      <trkpt lat="42.64078" lon="1.72942">
        <ele>2268.699951</ele>
        <time>2018-08-19T12:38:05Z</time>
      </trkpt>
      <trkpt lat="42.64079" lon="1.72928">
        <ele>2266.600098</ele>
        <time>2018-08-19T12:38:15Z</time>
      </trkpt>
      <trkpt lat="42.64075" lon="1.72917">
        <ele>2264.300049</ele>
        <time>2018-08-19T12:38:25Z</time>
      </trkpt>
      <trkpt lat="42.64075" lon="1.72904">
        <ele>2262.199951</ele>
        <time>2018-08-19T12:38:34Z</time>
      </trkpt>
      <trkpt lat="42.64068" lon="1.72895">
        <ele>2260.100098</ele>
        <time>2018-08-19T12:38:43Z</time>
      </trkpt>
      <trkpt lat="42.64065" lon="1.72883">
        <ele>2257.899902</ele>
        <time>2018-08-19T12:38:53Z</time>
      </trkpt>
      <trkpt lat="42.6406" lon="1.72872">
        <ele>2255.699951</ele>
        <time>2018-08-19T12:39:03Z</time>
      </trkpt>
      <trkpt lat="42.64058" lon="1.72858">
        <ele>2253.699951</ele>
        <time>2018-08-19T12:39:13Z</time>
      </trkpt>
      <trkpt lat="42.64054" lon="1.72847">
        <ele>2251.800049</ele>
        <time>2018-08-19T12:39:22Z</time>
      </trkpt>
      <trkpt lat="42.64049" lon="1.72836">
        <ele>2249.899902</ele>
        <time>2018-08-19T12:39:34Z</time>
      </trkpt>
      <trkpt lat="42.64044" lon="1.72847">
        <ele>2250.5</ele>
        <time>2018-08-19T12:39:48Z</time>
      </trkpt>
      <trkpt lat="42.64042" lon="1.72859">
        <ele>2251.600098</ele>
        <time>2018-08-19T12:39:58Z</time>
      </trkpt>
      <trkpt lat="42.64033" lon="1.72866">
        <ele>2251.899902</ele>
        <time>2018-08-19T12:40:08Z</time>
      </trkpt>
      <trkpt lat="42.64023" lon="1.72865">
        <ele>2251.300049</ele>
        <time>2018-08-19T12:40:17Z</time>
      </trkpt>
      <trkpt lat="42.64014" lon="1.72868">
        <ele>2250.600098</ele>
        <time>2018-08-19T12:40:28Z</time>
      </trkpt>
      <trkpt lat="42.64003" lon="1.72868">
        <ele>2249.699951</ele>
        <time>2018-08-19T12:40:37Z</time>
      </trkpt>
      <trkpt lat="42.63994" lon="1.72868">
        <ele>2248.300049</ele>
        <time>2018-08-19T12:40:46Z</time>
      </trkpt>
      <trkpt lat="42.63985" lon="1.72871">
        <ele>2245.800049</ele>
        <time>2018-08-19T12:41:02Z</time>
      </trkpt>
      <trkpt lat="42.63975" lon="1.72871">
        <ele>2243.800049</ele>
        <time>2018-08-19T12:41:15Z</time>
      </trkpt>
      <trkpt lat="42.63966" lon="1.72869">
        <ele>2241.399902</ele>
        <time>2018-08-19T12:41:24Z</time>
      </trkpt>
      <trkpt lat="42.63957" lon="1.72864">
        <ele>2238.699951</ele>
        <time>2018-08-19T12:41:32Z</time>
      </trkpt>
      <trkpt lat="42.63948" lon="1.72864">
        <ele>2236.399902</ele>
        <time>2018-08-19T12:41:40Z</time>
      </trkpt>
      <trkpt lat="42.63939" lon="1.72859">
        <ele>2233.100098</ele>
        <time>2018-08-19T12:41:52Z</time>
      </trkpt>
      <trkpt lat="42.63934" lon="1.72847">
        <ele>2230.699951</ele>
        <time>2018-08-19T12:42:01Z</time>
      </trkpt>
      <trkpt lat="42.6393" lon="1.72836">
        <ele>2228</ele>
        <time>2018-08-19T12:42:09Z</time>
      </trkpt>
      <trkpt lat="42.63928" lon="1.72823">
        <ele>2225.699951</ele>
        <time>2018-08-19T12:42:19Z</time>
      </trkpt>
      <trkpt lat="42.63921" lon="1.72813">
        <ele>2222.800049</ele>
        <time>2018-08-19T12:42:28Z</time>
      </trkpt>
      <trkpt lat="42.63917" lon="1.72801">
        <ele>2220.100098</ele>
        <time>2018-08-19T12:42:36Z</time>
      </trkpt>
      <trkpt lat="42.63919" lon="1.72788">
        <ele>2218.600098</ele>
        <time>2018-08-19T12:42:45Z</time>
      </trkpt>
      <trkpt lat="42.63915" lon="1.72775">
        <ele>2216.399902</ele>
        <time>2018-08-19T12:43:11Z</time>
      </trkpt>
      <trkpt lat="42.63912" lon="1.72764">
        <ele>2214.800049</ele>
        <time>2018-08-19T12:43:22Z</time>
      </trkpt>
      <trkpt lat="42.63909" lon="1.72752">
        <ele>2212.899902</ele>
        <time>2018-08-19T12:43:34Z</time>
      </trkpt>
      <trkpt lat="42.63902" lon="1.72743">
        <ele>2211.600098</ele>
        <time>2018-08-19T12:43:42Z</time>
      </trkpt>
      <trkpt lat="42.63897" lon="1.72733">
        <ele>2210.199951</ele>
        <time>2018-08-19T12:43:51Z</time>
      </trkpt>
      <trkpt lat="42.6389" lon="1.72724">
        <ele>2208.5</ele>
        <time>2018-08-19T12:44:00Z</time>
      </trkpt>
      <trkpt lat="42.63886" lon="1.72713">
        <ele>2206.699951</ele>
        <time>2018-08-19T12:44:12Z</time>
      </trkpt>
      <trkpt lat="42.63879" lon="1.72704">
        <ele>2205.100098</ele>
        <time>2018-08-19T12:44:22Z</time>
      </trkpt>
      <trkpt lat="42.63872" lon="1.72694">
        <ele>2203.100098</ele>
        <time>2018-08-19T12:44:30Z</time>
      </trkpt>
      <trkpt lat="42.63866" lon="1.72685">
        <ele>2200.800049</ele>
        <time>2018-08-19T12:44:40Z</time>
      </trkpt>
      <trkpt lat="42.63861" lon="1.72674">
        <ele>2198.699951</ele>
        <time>2018-08-19T12:44:49Z</time>
      </trkpt>
      <trkpt lat="42.63856" lon="1.72664">
        <ele>2196.600098</ele>
        <time>2018-08-19T12:44:57Z</time>
      </trkpt>
      <trkpt lat="42.6385" lon="1.72653">
        <ele>2194.699951</ele>
        <time>2018-08-19T12:45:05Z</time>
      </trkpt>
      <trkpt lat="42.63843" lon="1.72643">
        <ele>2192.899902</ele>
        <time>2018-08-19T12:45:14Z</time>
      </trkpt>
      <trkpt lat="42.63836" lon="1.72635">
        <ele>2191.100098</ele>
        <time>2018-08-19T12:45:23Z</time>
      </trkpt>
      <trkpt lat="42.6383" lon="1.72625">
        <ele>2189.800049</ele>
        <time>2018-08-19T12:45:31Z</time>
      </trkpt>
      <trkpt lat="42.63827" lon="1.72613">
        <ele>2189.100098</ele>
        <time>2018-08-19T12:45:42Z</time>
      </trkpt>
      <trkpt lat="42.63823" lon="1.72601">
        <ele>2188.5</ele>
        <time>2018-08-19T12:45:51Z</time>
      </trkpt>
      <trkpt lat="42.63816" lon="1.72593">
        <ele>2188.100098</ele>
        <time>2018-08-19T12:46:01Z</time>
      </trkpt>
      <trkpt lat="42.63807" lon="1.72596">
        <ele>2188.399902</ele>
        <time>2018-08-19T12:46:12Z</time>
      </trkpt>
      <trkpt lat="42.63799" lon="1.72589">
        <ele>2188.199951</ele>
        <time>2018-08-19T12:46:25Z</time>
      </trkpt>
      <trkpt lat="42.6379" lon="1.72588">
        <ele>2188.300049</ele>
        <time>2018-08-19T12:46:37Z</time>
      </trkpt>
      <trkpt lat="42.63781" lon="1.72588">
        <ele>2188.399902</ele>
        <time>2018-08-19T12:47:01Z</time>
      </trkpt>
      <trkpt lat="42.63791" lon="1.72582">
        <ele>2188</ele>
        <time>2018-08-19T13:02:16Z</time>
      </trkpt>
    </trkseg>
  </trk>
</gpx>